M I D A S
Marine Information and Data Acquisition System
Tripno 665 of the Zeeleeuw from 2004-03-11 07:14:48 to 2004-03-11 15:54:52
Back to CruiseResearch ActivitiesStationsMapUnderway DataData graphs

EquipmentUnitsComment
TimeDGPSUTC
LatitudeDGPSDM.mWGS84
LongitudeDGPSDM.mWGS84
TemperatureSBE03/SBE38deg celciusITS90
ConductivitySBE21S/mITS90
SalinitySBE21 Practical Salinity Units
ChlorophylAChelsea fluorimeterg/lCalibrated in Aceton
Missing or incorrect values are displayed as -999
Sea surface data collected by the RV Zeeleeuw from 2004-03-11 07:14:48 to 2004-03-11 15:54:52
                                                                                    Next 1000 lines
Time Latitude Longitude Temperature Conductivity Salinity ChlorophylA
2004-03-11 07:14:54 51°13.593 2°56.108 12.024657 0.064521 0.412068 3.466136
2004-03-11 07:15:00 51°13.592 2°56.108 12.020473 0.064521 0.412059 3.466136
2004-03-11 07:15:02 51°13.592 2°56.108 12.021064 0.064521 0.412059 3.432426
2004-03-11 07:15:09 51°13.592 2°56.108 12.025521 0.064521 0.412068 3.466136
2004-03-11 07:15:14 51°13.592 2°56.108 12.027704 0.064521 0.412068 3.432426
2004-03-11 07:15:18 51°13.592 2°56.108 12.027704 0.064521 0.412068 3.432426
2004-03-11 07:15:25 51°13.592 2°56.108 12.030887 0.064521 0.412068 3.466136
2004-03-11 07:15:30 51°13.592 2°56.108 12.036253 0.064521 0.412059 3.499845
2004-03-11 07:15:34 51°13.592 2°56.109 12.033752 0.064521 0.412068 3.466136
2004-03-11 07:15:38 51°13.592 2°56.109 12.031115 0.064521 0.412068 3.466136
2004-03-11 07:15:44 51°13.592 2°56.109 12.037708 0.064521 0.412068 3.466136
2004-03-11 07:15:49 51°13.592 2°56.109 12.037708 0.064521 0.412068 3.466136
2004-03-11 07:15:53 51°13.592 2°56.109 12.042982 0.064521 0.412059 3.466136
2004-03-11 07:16:00 51°13.592 2°56.109 12.048029 0.064521 0.412068 3.499845
2004-03-11 07:16:04 51°13.592 2°56.109 12.053575 0.064521 0.412068 3.432426
2004-03-11 07:16:09 51°13.592 2°56.109 12.048211 0.064521 0.412068 3.466136
2004-03-11 07:16:14 51°13.592 2°56.109 12.047438 0.064521 0.412076 3.466136
2004-03-11 07:16:18 51°13.592 2°56.109 12.047438 0.064521 0.412076 3.466136
2004-03-11 07:16:24 51°13.592 2°56.109 12.04471 0.064521 0.412068 3.499845
2004-03-11 07:16:30 51°13.592 2°56.109 12.045347 0.064521 0.412076 3.499845
2004-03-11 07:16:34 51°13.592 2°56.109 12.037617 0.064521 0.412068 3.432426
2004-03-11 07:16:40 51°13.592 2°56.109 12.043619 0.064521 0.412076 3.466136
2004-03-11 07:16:44 51°13.592 2°56.109 12.047393 0.064521 0.412068 3.466136
2004-03-11 07:16:49 51°13.592 2°56.109 12.044346 0.064521 0.412076 3.466136
2004-03-11 07:16:54 51°13.592 2°56.109 12.044346 0.064521 0.412076 3.466136
2004-03-11 07:16:58 51°13.592 2°56.109 12.046983 0.064521 0.412068 3.466136
2004-03-11 07:17:04 51°13.592 2°56.109 12.045119 0.064521 0.412076 3.466136
2004-03-11 07:17:09 51°13.592 2°56.109 12.043619 0.064521 0.412076 3.499845
2004-03-11 07:17:14 51°13.592 2°56.109 12.038663 0.064521 0.412076 3.499845
2004-03-11 07:17:20 51°13.592 2°56.109 12.04571 0.064521 0.412068 3.499845
2004-03-11 07:17:24 51°13.592 2°56.109 12.04571 0.064521 0.412068 3.499845
2004-03-11 07:17:30 51°13.592 2°56.109 12.048893 0.064521 0.412076 3.466136
2004-03-11 07:17:34 51°13.591 2°56.109 12.060667 0.064521 0.412076 3.466136
2004-03-11 07:17:39 51°13.591 2°56.109 12.063076 0.064521 0.412076 3.466136
2004-03-11 07:17:44 51°13.591 2°56.109 12.05353 0.064521 0.412084 3.499845
2004-03-11 07:17:50 51°13.591 2°56.109 12.031524 0.064521 0.412084 3.466136
2004-03-11 07:17:54 51°13.591 2°56.108 12.031524 0.064521 0.412084 3.466136
2004-03-11 07:18:00 51°13.591 2°56.106 11.987353 0.064625 0.412756 3.466136
2004-03-11 07:18:04 51°13.592 2°56.104 11.980527 0.064625 0.412756 3.499845
2004-03-11 07:18:10 51°13.593 2°56.099 12.025157 0.064521 0.412068 3.499845
2004-03-11 07:18:14 51°13.594 2°56.096 12.044483 0.064625 0.412764 3.466136
2004-03-11 07:18:20 51°13.596 2°56.09 12.044483 0.064625 0.412764 3.466136
2004-03-11 07:18:25 51°13.598 2°56.084 12.016925 0.064625 0.412748 3.499845
2004-03-11 07:18:30 51°13.601 2°56.078 12.026476 0.064625 0.412748 3.499845
2004-03-11 07:18:35 51°13.603 2°56.071 12.023702 0.064625 0.41274 3.499845
2004-03-11 07:18:40 51°13.606 2°56.064 12.034207 0.064625 0.41274 3.466136
2004-03-11 07:18:45 51°13.609 2°56.055 12.048029 0.064625 0.41274 3.466136
2004-03-11 07:18:50 51°13.611 2°56.047 12.048029 0.064625 0.41274 3.466136
2004-03-11 07:18:55 51°13.614 2°56.038 12.043392 0.064625 0.412748 3.499845
2004-03-11 07:19:00 51°13.617 2°56.029 12.062576 0.064521 0.412051 3.499845
2004-03-11 07:19:05 51°13.621 2°56.019 12.076528 0.064625 0.412731 3.499845
2004-03-11 07:19:10 51°13.624 2°56.009 12.122456 0.064521 0.412043 3.466136
2004-03-11 07:19:15 51°13.627 2°55.999 12.09275 0.064625 0.412731 3.466136
2004-03-11 07:19:20 51°13.631 2°55.989 12.09275 0.064625 0.412731 3.466136
2004-03-11 07:19:25 51°13.634 2°55.979 12.083617 0.064625 0.412723 3.499845
2004-03-11 07:19:30 51°13.637 2°55.969 12.085526 0.064521 0.412043 3.499845
2004-03-11 07:19:36 51°13.641 2°55.956 12.088433 0.064625 0.41274 3.466136
2004-03-11 07:19:40 51°13.643 2°55.948 12.081754 0.064521 0.412043 3.499845
2004-03-11 07:19:45 51°13.646 2°55.937 12.082845 0.064625 0.412731 3.466136
2004-03-11 07:19:50 51°13.649 2°55.926 12.082845 0.064625 0.412731 3.466136
2004-03-11 07:19:55 51°13.652 2°55.914 12.080664 0.064625 0.412748 3.466136
2004-03-11 07:20:00 51°13.654 2°55.902 12.073938 0.064625 0.412748 3.466136
2004-03-11 07:20:05 51°13.656 2°55.89 12.046756 0.064625 0.41274 3.499845
2004-03-11 07:20:10 51°13.658 2°55.878 12.05753 0.064625 0.412748 3.499845
2004-03-11 07:20:16 51°13.661 2°55.863 12.128041 0.064625 0.412756 3.499845
2004-03-11 07:20:20 51°13.662 2°55.853 12.104016 0.064521 0.412068 3.499845
2004-03-11 07:20:25 51°13.663 2°55.841 12.104016 0.064521 0.412068 3.499845
2004-03-11 07:20:30 51°13.664 2°55.829 12.111602 0.064625 0.412764 3.466136
2004-03-11 07:20:35 51°13.665 2°55.816 12.093295 0.064625 0.412772 3.466136
2004-03-11 07:20:40 51°13.666 2°55.805 12.138621 0.064521 0.412092 3.499845
2004-03-11 07:20:45 51°13.666 2°55.794 12.162134 0.064521 0.412092 3.499845
2004-03-11 07:20:50 51°13.667 2°55.786 12.101608 0.064625 0.41278 3.499845
2004-03-11 07:20:55 51°13.667 2°55.779 12.101608 0.064625 0.41278 3.499845
2004-03-11 07:21:00 51°13.667 2°55.774 12.123046 0.064625 0.41278 3.466136
2004-03-11 07:21:04 51°13.667 2°55.772 12.185912 0.064625 0.412797 3.466136
2004-03-11 07:21:08 51°13.667 2°55.77 12.176747 0.064625 0.412797 3.466136
2004-03-11 07:21:14 51°13.667 2°55.769 12.165493 0.064521 0.412108 3.499845
2004-03-11 07:21:18 51°13.668 2°55.769 12.165493 0.064521 0.412108 3.499845
2004-03-11 07:21:25 51°13.671 2°55.771 12.155644 0.064521 0.412108 3.466136
2004-03-11 07:21:30 51°13.674 2°55.772 12.204193 0.064521 0.412108 3.499845
2004-03-11 07:21:34 51°13.676 2°55.773 12.204465 0.064625 0.412789 3.466136
2004-03-11 07:21:40 51°13.68 2°55.775 12.185639 0.064625 0.412797 3.499845
2004-03-11 07:21:44 51°13.682 2°55.776 12.205145 0.064625 0.412797 3.499845
2004-03-11 07:21:50 51°13.686 2°55.776 12.251618 0.064521 0.412108 3.533554
2004-03-11 07:21:54 51°13.689 2°55.776 12.251618 0.064521 0.412108 3.533554
2004-03-11 07:22:00 51°13.695 2°55.774 12.237249 0.064521 0.412125 3.533554
2004-03-11 07:22:04 51°13.699 2°55.772 12.340665 0.064521 0.412141 3.499845
2004-03-11 07:22:09 51°13.704 2°55.768 12.269247 0.064625 0.412854 3.466136
2004-03-11 07:22:14 51°13.709 2°55.762 12.170485 0.064625 0.412838 3.499845
2004-03-11 07:22:18 51°13.712 2°55.758 12.170485 0.064625 0.412838 3.499845
2004-03-11 07:22:24 51°13.718 2°55.751 12.119777 0.064625 0.412805 3.533554
2004-03-11 07:22:30 51°13.724 2°55.744 12.108831 0.064625 0.412797 3.499845
2004-03-11 07:22:34 51°13.728 2°55.739 12.116143 0.064625 0.41278 3.499845
2004-03-11 07:22:38 51°13.732 2°55.734 12.080891 0.064625 0.412756 3.499845
2004-03-11 07:22:44 51°13.738 2°55.726 12.063348 0.064625 0.412764 3.499845
2004-03-11 07:22:48 51°13.743 2°55.721 12.063348 0.064625 0.412764 3.499845
2004-03-11 07:22:54 51°13.75 2°55.713 12.096112 0.064625 0.412748 3.499845
2004-03-11 07:23:00 51°13.758 2°55.704 12.103062 0.064625 0.412748 3.533554
2004-03-11 07:23:04 51°13.764 2°55.698 12.109648 0.064625 0.41274 3.533554
2004-03-11 07:23:09 51°13.772 2°55.69 12.075029 0.064625 0.412731 3.499845
2004-03-11 07:23:14 51°13.78 2°55.682 12.074892 0.064625 0.412731 3.533554
2004-03-11 07:23:18 51°13.786 2°55.676 12.056985 0.064625 0.412731 3.499845
2004-03-11 07:23:24 51°13.797 2°55.666 12.056985 0.064625 0.412731 3.499845
2004-03-11 07:23:29 51°13.806 2°55.658 12.056848 0.064625 0.412731 3.499845
2004-03-11 07:23:34 51°13.816 2°55.65 12.058576 0.064625 0.412731 3.533554
2004-03-11 07:23:40 51°13.827 2°55.64 12.077574 0.064625 0.412723 3.533554
2004-03-11 07:23:44 51°13.835 2°55.633 12.076483 0.064625 0.412731 3.533554
2004-03-11 07:23:49 51°13.844 2°55.624 12.019881 0.064625 0.412731 3.499845
2004-03-11 07:23:54 51°13.855 2°55.616 12.019881 0.064625 0.412731 3.499845
2004-03-11 07:24:00 51°13.867 2°55.606 12.042801 0.064625 0.412723 3.533554
2004-03-11 07:24:05 51°13.878 2°55.597 12.059212 0.064625 0.412723 3.533554
2004-03-11 07:24:09 51°13.887 2°55.591 12.051984 0.064625 0.412723 3.499845
2004-03-11 07:24:15 51°13.9 2°55.581 12.055485 0.064625 0.412723 3.533554
2004-03-11 07:24:26 51°13.924 2°55.563 12.056576 0.064625 0.412731 3.499845
2004-03-11 07:24:30 51°13.933 2°55.557 12.075983 0.064625 0.412748 3.499845
2004-03-11 07:24:34 51°13.942 2°55.551 12.074801 0.064625 0.412748 3.499845
2004-03-11 07:24:40 51°13.956 2°55.541 12.077619 0.064625 0.412748 3.499845
2004-03-11 07:24:45 51°13.967 2°55.533 12.080618 0.064625 0.412756 3.533554
2004-03-11 07:24:50 51°13.979 2°55.526 12.086616 0.064625 0.412764 3.499845
2004-03-11 07:24:56 51°13.992 2°55.516 12.086616 0.064625 0.412764 3.499845
2004-03-11 07:25:00 51°14.001 2°55.509 12.092477 0.064625 0.412764 3.499845
2004-03-11 07:25:06 51°14.015 2°55.5 12.094158 0.064625 0.412764 3.499845
2004-03-11 07:25:10 51°14.024 2°55.493 12.094885 0.064625 0.412764 3.533554
2004-03-11 07:25:14 51°14.033 2°55.487 12.100291 0.064625 0.412764 3.499845
2004-03-11 07:25:20 51°14.047 2°55.477 12.081481 0.064625 0.412764 3.499845
2004-03-11 07:25:26 51°14.061 2°55.467 12.081481 0.064625 0.412764 3.499845
2004-03-11 07:25:30 51°14.07 2°55.461 12.098565 0.064625 0.412772 3.533554
2004-03-11 07:25:36 51°14.084 2°55.45 12.106287 0.064625 0.412772 3.499845
2004-03-11 07:25:41 51°14.095 2°55.442 12.082254 0.064625 0.412772 3.533554
2004-03-11 07:25:46 51°14.107 2°55.433 12.072347 0.064625 0.412764 3.567264
2004-03-11 07:25:50 51°14.117 2°55.426 12.095884 0.064625 0.412764 3.533554
2004-03-11 07:25:56 51°14.131 2°55.416 12.095884 0.064625 0.412764 3.533554
2004-03-11 07:26:00 51°14.141 2°55.408 12.128178 0.064625 0.412764 3.499845
2004-03-11 07:26:06 51°14.155 2°55.396 12.143297 0.064625 0.412789 3.499845
2004-03-11 07:26:10 51°14.164 2°55.388 12.139892 0.064625 0.41278 3.533554
2004-03-11 07:26:16 51°14.178 2°55.374 12.124272 0.064625 0.412789 3.533554
2004-03-11 07:26:21 51°14.19 2°55.362 12.141072 0.064625 0.41278 3.533554
2004-03-11 07:26:26 51°14.202 2°55.349 12.141072 0.064625 0.41278 3.533554
2004-03-11 07:26:31 51°14.213 2°55.336 12.16522 0.064625 0.41278 3.533554
2004-03-11 07:26:36 51°14.224 2°55.321 12.187454 0.064625 0.412789 3.533554
2004-03-11 07:26:41 51°14.235 2°55.306 12.145385 0.064625 0.41278 3.567264
2004-03-11 07:26:46 51°14.246 2°55.291 12.087025 0.064625 0.412772 3.533554
2004-03-11 07:26:51 51°14.256 2°55.275 12.150923 0.064625 0.41278 3.533554
2004-03-11 07:26:56 51°14.267 2°55.258 12.129086 0.064625 0.412772 3.533554
2004-03-11 07:27:01 51°14.277 2°55.24 12.129086 0.064625 0.412772 3.533554
2004-03-11 07:27:06 51°14.288 2°55.221 12.102381 0.064625 0.41278 3.533554
2004-03-11 07:27:10 51°14.296 2°55.205 12.134489 0.064625 0.412772 3.499845
2004-03-11 07:27:16 51°14.309 2°55.181 12.101972 0.064625 0.412772 3.533554
2004-03-11 07:27:21 51°14.319 2°55.161 12.086616 0.064625 0.412764 3.499845
2004-03-11 07:27:26 51°14.329 2°55.14 12.030705 0.064729 0.41342 3.499845
2004-03-11 07:27:30 51°14.338 2°55.124 12.030705 0.064729 0.41342 3.499845
2004-03-11 07:27:36 51°14.351 2°55.099 11.97898 0.064729 0.413412 3.533554
2004-03-11 07:27:41 51°14.362 2°55.079 12.057803 0.064729 0.413395 3.533554
2004-03-11 07:27:46 51°14.373 2°55.059 12.05403 0.064729 0.413395 3.567264
2004-03-11 07:27:50 51°14.382 2°55.042 12.126043 0.064729 0.413428 3.533554
2004-03-11 07:27:56 51°14.395 2°55.016 12.145385 0.064625 0.412699 3.533554
2004-03-11 07:28:00 51°14.402 2°54.999 12.145385 0.064625 0.412699 3.533554
2004-03-11 07:28:06 51°14.413 2°54.974 12.100972 0.064729 0.413395 3.533554
2004-03-11 07:28:10 51°14.419 2°54.957 12.131765 0.064729 0.413379 3.533554
2004-03-11 07:28:16 51°14.428 2°54.931 12.116416 0.064729 0.413379 3.533554
2004-03-11 07:28:20 51°14.434 2°54.914 12.157686 0.064729 0.413387 3.567264
2004-03-11 07:28:26 51°14.441 2°54.888 12.140891 0.064625 0.412731 3.567264
2004-03-11 07:28:30 51°14.446 2°54.871 12.140891 0.064625 0.412731 3.567264
2004-03-11 07:28:36 51°14.453 2°54.847 12.127133 0.064729 0.413444 3.533554
2004-03-11 07:28:41 51°14.459 2°54.827 12.122728 0.064625 0.412764 3.499845
2004-03-11 07:28:46 51°14.465 2°54.807 12.11419 0.064729 0.413469 3.567264
2004-03-11 07:28:50 51°14.47 2°54.792 12.180558 0.064625 0.412756 3.533554
2004-03-11 07:28:56 51°14.478 2°54.769 12.180558 0.064625 0.412756 3.533554
2004-03-11 07:29:00 51°14.483 2°54.754 12.135715 0.064729 0.413436 3.533554
2004-03-11 07:29:06 51°14.49 2°54.732 12.222423 0.064729 0.413444 3.533554
2004-03-11 07:29:10 51°14.495 2°54.718 12.20442 0.064625 0.41278 3.499845
2004-03-11 07:29:16 51°14.503 2°54.697 12.174115 0.064625 0.412756 3.533554
2004-03-11 07:29:20 51°14.508 2°54.683 12.141481 0.064729 0.413461 3.533554
2004-03-11 07:29:26 51°14.516 2°54.661 12.141481 0.064729 0.413461 3.533554
2004-03-11 07:29:30 51°14.521 2°54.646 12.169713 0.064729 0.413461 3.533554
2004-03-11 07:29:36 51°14.53 2°54.623 12.17348 0.064625 0.412805 3.533554
2004-03-11 07:29:40 51°14.537 2°54.607 12.156279 0.064729 0.413567 3.499845
2004-03-11 07:29:46 51°14.546 2°54.583 12.146611 0.064625 0.41287 3.533554
2004-03-11 07:29:50 51°14.553 2°54.566 12.135624 0.064729 0.413526 3.533554
2004-03-11 07:29:55 51°14.562 2°54.545 12.135624 0.064729 0.413526 3.533554
2004-03-11 07:30:00 51°14.57 2°54.523 12.129086 0.064833 0.414157 3.533554
2004-03-11 07:30:06 51°14.581 2°54.496 12.187817 0.064625 0.412797 3.533554
2004-03-11 07:30:10 51°14.588 2°54.478 12.14257 0.064729 0.413469 3.533554
2004-03-11 07:30:16 51°14.598 2°54.45 12.162588 0.064729 0.413477 3.533554
2004-03-11 07:30:20 51°14.606 2°54.431 12.134988 0.064729 0.413493 3.567264
2004-03-11 07:30:26 51°14.616 2°54.402 12.047574 0.064833 0.414157 3.533554
2004-03-11 07:30:30 51°14.624 2°54.383 12.047574 0.064833 0.414157 3.533554
2004-03-11 07:30:36 51°14.636 2°54.353 12.138303 0.064729 0.413493 3.499845
2004-03-11 07:30:40 51°14.643 2°54.332 12.198841 0.064729 0.413592 3.533554
2004-03-11 07:30:45 51°14.652 2°54.306 12.165493 0.064729 0.413542 3.533554
2004-03-11 07:30:50 51°14.662 2°54.279 12.10824 0.064729 0.413559 3.567264
2004-03-11 07:30:56 51°14.673 2°54.248 12.123046 0.064729 0.413526 3.567264
2004-03-11 07:31:01 51°14.683 2°54.221 12.123046 0.064729 0.413526 3.567264
2004-03-11 07:31:05 51°14.691 2°54.2 12.164403 0.064729 0.413583 3.533554
2004-03-11 07:31:10 51°14.7 2°54.174 12.099791 0.064729 0.413583 3.533554
2004-03-11 07:31:16 51°14.713 2°54.142 12.090978 0.064729 0.413567 3.533554
2004-03-11 07:31:20 51°14.721 2°54.121 12.161544 0.064833 0.414289 3.567264
2004-03-11 07:31:25 51°14.731 2°54.095 12.137349 0.064729 0.413657 3.533554
2004-03-11 07:31:30 51°14.741 2°54.068 12.137349 0.064729 0.413657 3.533554
2004-03-11 07:31:36 51°14.754 2°54.036 12.130403 0.064729 0.413616 3.533554
2004-03-11 07:31:40 51°14.762 2°54.015 12.112555 0.064729 0.413575 3.533554
2004-03-11 07:31:44 51°14.769 2°53.993 12.17348 0.064833 0.414329 3.567264
2004-03-11 07:31:50 51°14.781 2°53.961 12.125998 0.064729 0.413739 3.567264
2004-03-11 07:31:54 51°14.789 2°53.939 12.129631 0.064729 0.413731 3.567264
2004-03-11 07:32:00 51°14.8 2°53.906 12.129631 0.064729 0.413731 3.567264
2004-03-11 07:32:06 51°14.811 2°53.874 12.147292 0.064729 0.413714 3.499845
2004-03-11 07:32:10 51°14.819 2°53.851 12.108695 0.064729 0.413632 3.567264
2004-03-11 07:32:14 51°14.826 2°53.829 12.158957 0.064729 0.413583 3.567264
2004-03-11 07:32:20 51°14.838 2°53.796 12.124681 0.064833 0.414264 3.533554
2004-03-11 07:32:25 51°14.848 2°53.769 12.124681 0.064833 0.414264 3.533554
2004-03-11 07:32:30 51°14.857 2°53.742 12.134171 0.064729 0.413592 3.533554
2004-03-11 07:32:36 51°14.869 2°53.71 12.103335 0.064729 0.413624 3.533554
2004-03-11 07:32:40 51°14.878 2°53.688 12.128041 0.064729 0.413632 3.533554
2004-03-11 07:32:45 51°14.888 2°53.661 12.106287 0.064729 0.413608 3.499845
2004-03-11 07:32:50 51°14.897 2°53.634 12.169622 0.064729 0.413657 3.567264
2004-03-11 07:32:54 51°14.905 2°53.612 12.169622 0.064729 0.413657 3.567264
2004-03-11 07:33:00 51°14.917 2°53.579 12.124545 0.064833 0.414321 3.567264
2004-03-11 07:33:06 51°14.928 2°53.547 12.171074 0.064729 0.413698 3.567264
2004-03-11 07:33:10 51°14.936 2°53.524 12.129903 0.064729 0.413682 3.533554
2004-03-11 07:33:16 51°14.947 2°53.491 12.136805 0.064833 0.414321 3.533554
2004-03-11 07:33:20 51°14.955 2°53.469 12.139392 0.064833 0.414362 3.533554
2004-03-11 07:33:26 51°14.967 2°53.436 12.139392 0.064833 0.414362 3.533554
2004-03-11 07:33:30 51°14.975 2°53.414 12.137849 0.064729 0.413747 3.567264
2004-03-11 07:33:36 51°14.987 2°53.382 12.120004 0.064729 0.413723 3.533554
2004-03-11 07:33:41 51°14.997 2°53.354 12.174705 0.064729 0.413706 3.567264
2004-03-11 07:33:46 51°15.007 2°53.327 12.161953 0.064729 0.413731 3.533554
2004-03-11 07:33:50 51°15.015 2°53.304 12.1482 0.064833 0.414502 3.533554
2004-03-11 07:33:56 51°15.027 2°53.271 12.1482 0.064833 0.414502 3.533554
2004-03-11 07:34:00 51°15.034 2°53.249 12.14534 0.064729 0.413813 3.567264
2004-03-11 07:34:06 51°15.045 2°53.215 12.148699 0.064833 0.414444 3.567264
2004-03-11 07:34:10 51°15.052 2°53.192 12.211585 0.064729 0.413903 3.567264
2004-03-11 07:34:14 51°15.059 2°53.169 12.156915 0.064729 0.413927 3.533554
2004-03-11 07:34:21 51°15.072 2°53.129 12.131856 0.064729 0.413837 3.533554
2004-03-11 07:34:26 51°15.081 2°53.101 12.122683 0.064833 0.414436 3.567264
2004-03-11 07:34:30 51°15.088 2°53.078 12.122683 0.064833 0.414436 3.567264
2004-03-11 07:34:36 51°15.099 2°53.044 12.161453 0.064729 0.413731 3.533554
2004-03-11 07:34:40 51°15.106 2°53.021 12.190267 0.064729 0.413837 3.533554
2004-03-11 07:34:45 51°15.114 2°52.993 12.159139 0.064729 0.413895 3.533554
2004-03-11 07:34:50 51°15.123 2°52.964 12.160273 0.064729 0.413845 3.567264
2004-03-11 07:34:56 51°15.133 2°52.929 12.18514 0.064729 0.413845 3.567264
2004-03-11 07:35:01 51°15.141 2°52.899 12.18514 0.064729 0.413845 3.567264
2004-03-11 07:35:05 51°15.147 2°52.875 12.171574 0.064729 0.413862 3.567264
2004-03-11 07:35:10 51°15.154 2°52.845 12.167172 0.064729 0.413886 3.533554
2004-03-11 07:35:16 51°15.163 2°52.809 12.210361 0.064729 0.414009 3.533554
2004-03-11 07:35:20 51°15.17 2°52.785 12.141208 0.064833 0.414748 3.567264
2004-03-11 07:35:26 51°15.179 2°52.75 12.157641 0.064729 0.41396 3.567264
2004-03-11 07:35:30 51°15.186 2°52.726 12.157641 0.064729 0.41396 3.567264
2004-03-11 07:35:36 51°15.197 2°52.691 12.162089 0.064833 0.414649 3.533554
2004-03-11 07:35:41 51°15.206 2°52.662 12.190222 0.064729 0.413903 3.533554
2004-03-11 07:35:46 51°15.215 2°52.633 12.209681 0.064729 0.413944 3.567264
2004-03-11 07:35:50 51°15.222 2°52.61 12.170258 0.064729 0.413911 3.533554
2004-03-11 07:35:56 51°15.233 2°52.575 12.170258 0.064729 0.413911 3.533554
2004-03-11 07:36:00 51°15.24 2°52.552 12.159048 0.064833 0.414543 3.567264
2004-03-11 07:36:06 51°15.25 2°52.517 12.201199 0.064833 0.414592 3.567264
2004-03-11 07:36:10 51°15.258 2°52.493 12.183961 0.064729 0.414017 3.567264
2004-03-11 07:36:16 51°15.268 2°52.458 12.21612 0.064729 0.414099 3.533554
2004-03-11 07:36:20 51°15.275 2°52.434 12.18201 0.064729 0.414132 3.567264
2004-03-11 07:36:26 51°15.285 2°52.399 12.18201 0.064729 0.414132 3.567264
2004-03-11 07:36:30 51°15.292 2°52.376 12.155417 0.064833 0.414658 3.567264
2004-03-11 07:36:35 51°15.301 2°52.347 12.204964 0.064729 0.414042 3.567264
2004-03-11 07:36:40 51°15.309 2°52.317 12.179333 0.064729 0.414042 3.567264
2004-03-11 07:36:46 51°15.318 2°52.281 12.190222 0.064729 0.414099 3.567264
2004-03-11 07:36:50 51°15.324 2°52.257 12.176883 0.064833 0.414732 3.533554
2004-03-11 07:36:54 51°15.33 2°52.233 12.176883 0.064833 0.414732 3.533554
2004-03-11 07:37:00 51°15.338 2°52.197 12.176747 0.064833 0.414682 3.567264
2004-03-11 07:37:06 51°15.347 2°52.16 12.170439 0.064833 0.414814 3.533554
2004-03-11 07:37:10 51°15.352 2°52.135 12.190585 0.064833 0.414814 3.567264
2004-03-11 07:37:16 51°15.36 2°52.099 12.17897 0.064833 0.414773 3.533554
2004-03-11 07:37:20 51°15.366 2°52.074 12.180694 0.064833 0.414715 3.600973
2004-03-11 07:37:25 51°15.372 2°52.044 12.180694 0.064833 0.414715 3.600973
2004-03-11 07:37:30 51°15.379 2°52.013 12.169758 0.064833 0.414748 3.567264
2004-03-11 07:37:36 51°15.385 2°51.975 12.216075 0.064833 0.414896 3.567264
2004-03-11 07:37:40 51°15.389 2°51.95 12.202651 0.064833 0.414756 3.567264
2004-03-11 07:37:46 51°15.394 2°51.911 12.200473 0.064833 0.414789 3.567264
2004-03-11 07:37:50 51°15.398 2°51.886 12.239969 0.064729 0.414255 3.533554
2004-03-11 07:37:56 51°15.402 2°51.847 12.201335 0.064729 0.41428 3.600973
2004-03-11 07:38:00 51°15.404 2°51.821 12.201335 0.064729 0.41428 3.600973
2004-03-11 07:38:06 51°15.407 2°51.782 12.194486 0.064833 0.414814 3.567264
2004-03-11 07:38:10 51°15.409 2°51.756 12.199476 0.064833 0.414756 3.567264
2004-03-11 07:38:16 51°15.412 2°51.717 12.212447 0.064729 0.414108 3.567264
2004-03-11 07:38:20 51°15.412 2°51.691 12.215032 0.064729 0.414182 3.567264
2004-03-11 07:38:26 51°15.413 2°51.652 12.201335 0.064833 0.414847 3.567264
2004-03-11 07:38:30 51°15.412 2°51.626 12.201335 0.064833 0.414847 3.567264
2004-03-11 07:38:34 51°15.412 2°51.6 12.20832 0.064833 0.414904 3.567264
2004-03-11 07:38:40 51°15.411 2°51.561 12.209907 0.064833 0.414921 3.567264
2004-03-11 07:38:46 51°15.41 2°51.521 12.195438 0.064833 0.414896 3.600973
2004-03-11 07:38:50 51°15.408 2°51.495 12.202968 0.064833 0.414912 3.567264
2004-03-11 07:38:56 51°15.407 2°51.456 12.192399 0.064833 0.414888 3.600973
2004-03-11 07:39:00 51°15.406 2°51.43 12.192399 0.064833 0.414888 3.600973
2004-03-11 07:39:05 51°15.405 2°51.397 12.173616 0.064833 0.414888 3.567264
2004-03-11 07:39:10 51°15.403 2°51.365 12.193306 0.064833 0.414847 3.567264
2004-03-11 07:39:16 51°15.401 2°51.325 12.17711 0.064833 0.414797 3.600973
2004-03-11 07:39:20 51°15.4 2°51.299 12.197752 0.064833 0.414904 3.600973
2004-03-11 07:39:26 51°15.398 2°51.26 12.197434 0.064833 0.41483 3.600973
2004-03-11 07:39:30 51°15.398 2°51.234 12.197434 0.064833 0.41483 3.600973
2004-03-11 07:39:36 51°15.396 2°51.194 12.18505 0.064833 0.414781 3.567264
2004-03-11 07:39:40 51°15.395 2°51.168 12.20832 0.064833 0.414929 3.600973
2004-03-11 07:39:45 51°15.393 2°51.135 12.264444 0.064833 0.414937 3.600973
2004-03-11 07:39:49 51°15.391 2°51.109 12.214805 0.064833 0.414962 3.600973
2004-03-11 07:39:56 51°15.386 2°51.064 12.214805 0.064833 0.414962 3.600973
2004-03-11 07:40:00 51°15.384 2°51.038 12.213082 0.064833 0.41497 3.567264
2004-03-11 07:40:06 51°15.379 2°50.999 12.232398 0.064833 0.414896 3.600973
2004-03-11 07:40:10 51°15.377 2°50.973 12.1875 0.064833 0.41483 3.567264
2004-03-11 07:40:16 51°15.372 2°50.935 12.234302 0.064833 0.414855 3.600973
2004-03-11 07:40:20 51°15.369 2°50.909 12.218751 0.064833 0.414855 3.600973
2004-03-11 07:40:25 51°15.365 2°50.877 12.218751 0.064833 0.414855 3.600973
2004-03-11 07:40:30 51°15.361 2°50.844 12.216392 0.064833 0.414847 3.600973
2004-03-11 07:40:36 51°15.357 2°50.805 12.238927 0.064833 0.414855 3.600973
2004-03-11 07:40:40 51°15.354 2°50.779 12.168533 0.064833 0.414806 3.600973
2004-03-11 07:40:46 51°15.349 2°50.74 12.21612 0.064833 0.414789 3.600973
2004-03-11 07:40:50 51°15.346 2°50.715 12.197752 0.064833 0.414855 3.567264
2004-03-11 07:40:54 51°15.343 2°50.689 12.197752 0.064833 0.414855 3.567264
2004-03-11 07:41:00 51°15.339 2°50.65 12.193306 0.064833 0.414806 3.600973
2004-03-11 07:41:06 51°15.335 2°50.611 12.197661 0.064937 0.415528 3.600973
2004-03-11 07:41:10 51°15.332 2°50.585 12.187318 0.064833 0.414814 3.567264
2004-03-11 07:41:16 51°15.327 2°50.547 12.217572 0.064833 0.414748 3.600973
2004-03-11 07:41:20 51°15.323 2°50.521 12.196436 0.064833 0.414888 3.567264
2004-03-11 07:41:26 51°15.318 2°50.483 12.193306 0.064937 0.415512 3.600973
2004-03-11 07:41:30 51°15.314 2°50.458 12.193306 0.064937 0.415512 3.600973
2004-03-11 07:41:36 51°15.308 2°50.42 12.200292 0.064937 0.415495 3.600973
2004-03-11 07:41:40 51°15.304 2°50.394 12.205644 0.064833 0.414847 3.600973
2004-03-11 07:41:45 51°15.3 2°50.363 12.183825 0.064833 0.414773 3.567264
2004-03-11 07:41:51 51°15.295 2°50.324 12.181874 0.064833 0.414781 3.600973
2004-03-11 07:41:56 51°15.292 2°50.292 12.169032 0.064833 0.414773 3.567264
2004-03-11 07:42:01 51°15.287 2°50.26 12.169032 0.064833 0.414773 3.567264
2004-03-11 07:42:06 51°15.283 2°50.228 12.21086 0.064833 0.414806 3.600973
2004-03-11 07:42:10 51°15.28 2°50.202 12.225733 0.064833 0.414814 3.600973
2004-03-11 07:42:16 51°15.276 2°50.163 12.204057 0.064833 0.414888 3.600973
2004-03-11 07:42:20 51°15.272 2°50.138 12.216075 0.064833 0.414756 3.600973
2004-03-11 07:42:26 51°15.268 2°50.099 12.202787 0.064937 0.415364 3.600973
2004-03-11 07:42:30 51°15.266 2°50.073 12.202787 0.064937 0.415364 3.600973
2004-03-11 07:42:36 51°15.261 2°50.034 12.229361 0.064937 0.415429 3.567264
2004-03-11 07:42:40 51°15.258 2°50.008 12.183326 0.064937 0.415512 3.600973
2004-03-11 07:42:45 51°15.255 2°49.976 12.193442 0.064937 0.415462 3.600973
2004-03-11 07:42:50 51°15.252 2°49.944 12.189405 0.064937 0.415438 3.634683
2004-03-11 07:42:56 51°15.247 2°49.905 12.194486 0.064937 0.415454 3.600973
2004-03-11 07:43:01 51°15.244 2°49.872 12.194486 0.064937 0.415454 3.600973
2004-03-11 07:43:06 51°15.24 2°49.84 12.22265 0.064937 0.415454 3.600973
2004-03-11 07:43:10 51°15.237 2°49.814 12.202832 0.064937 0.415479 3.600973
2004-03-11 07:43:16 51°15.233 2°49.775 12.188815 0.064937 0.415397 3.567264
2004-03-11 07:43:20 51°15.23 2°49.749 8.371057 0.06764 0.433328 1.982922
2004-03-11 07:43:25 51°15.226 2°49.717 6.345885 0.111416 0.728438 1.881794
2004-03-11 07:43:30 51°15.223 2°49.685 6.345885 0.111416 0.728438 1.881794
2004-03-11 07:43:36 51°15.219 2°49.646 5.634506 0.308894 2.08241 28.849315
2004-03-11 07:43:40 51°15.216 2°49.62 5.38062 1.500619 11.479843 23.725486
2004-03-11 07:43:46 51°15.212 2°49.581 5.26968 1.67726 13.802523 16.073452
2004-03-11 07:43:50 51°15.209 2°49.555 5.075582 2.882608 26.74782 12.668802
2004-03-11 07:43:56 51°15.204 2°49.517 5.075582 2.882608 26.74782 12.668802
2004-03-11 07:44:00 51°15.202 2°49.491 5.041434 2.994294 28.91796 10.848494
2004-03-11 07:44:06 51°15.197 2°49.452 5.012845 3.003881 29.676518 8.657383
2004-03-11 07:44:10 51°15.195 2°49.426 4.997176 2.983253 29.816203 8.016905
2004-03-11 07:44:16 51°15.19 2°49.388 4.921364 2.987572 30.143108 7.443845
2004-03-11 07:44:20 51°15.187 2°49.362 4.918419 2.996416 30.390881 7.207879
2004-03-11 07:44:25 51°15.183 2°49.33 4.918419 2.996416 30.390881 7.207879
2004-03-11 07:44:30 51°15.18 2°49.298 4.882814 2.978101 30.282813 7.309007
2004-03-11 07:44:36 51°15.175 2°49.259 4.897444 2.971575 30.270763 7.005623
2004-03-11 07:44:40 51°15.172 2°49.233 4.913798 2.93884 29.959652 6.938204
2004-03-11 07:44:46 51°15.169 2°49.194 4.90034 2.914843 29.748644 7.443845
2004-03-11 07:44:50 51°15.165 2°49.169 4.843477 2.981577 30.537256 7.073042
2004-03-11 07:44:56 51°15.161 2°49.13 4.873973 2.934526 30.02054 6.803366
2004-03-11 07:45:00 51°15.158 2°49.104 4.873973 2.934526 30.02054 6.803366
2004-03-11 07:45:06 51°15.154 2°49.066 4.834732 2.976314 30.518397 7.443845
2004-03-11 07:45:10 51°15.151 2°49.041 4.825224 2.981472 30.586416 6.668529
2004-03-11 07:45:16 51°15.147 2°49.002 4.837427 2.984209 30.64149 6.702238
2004-03-11 07:45:20 51°15.143 2°48.976 4.881544 2.983999 30.653558 7.578683
2004-03-11 07:45:26 51°15.139 2°48.937 4.846934 2.982736 30.659317 6.60111
2004-03-11 07:45:30 51°15.136 2°48.912 4.846934 2.982736 30.659317 6.60111
2004-03-11 07:45:36 51°15.132 2°48.873 4.847849 2.985789 30.714117 6.769657
2004-03-11 07:45:40 51°15.129 2°48.848 4.826292 2.986105 30.728191 6.904494
2004-03-11 07:45:46 51°15.124 2°48.809 4.840834 2.983683 30.686976 6.634819
2004-03-11 07:45:50 51°15.122 2°48.783 4.823596 2.98642 30.722906 6.702238
2004-03-11 07:45:56 51°15.117 2°48.744 4.846985 2.986105 30.729805 6.702238
2004-03-11 07:46:00 51°15.114 2°48.719 4.846985 2.986105 30.729805 6.702238
2004-03-11 07:46:05 51°15.111 2°48.686 4.828173 2.989157 30.772587 7.241589
2004-03-11 07:46:10 51°15.108 2°48.654 4.82085 2.989368 30.782259 6.702238
2004-03-11 07:46:15 51°15.105 2°48.621 4.803709 2.990316 30.798699 6.803366
2004-03-11 07:46:20 51°15.101 2°48.589 4.810068 2.988105 30.773551 6.533691
2004-03-11 07:46:26 51°15.097 2°48.55 4.809661 2.98 30.683783 7.17417
2004-03-11 07:46:30 51°15.094 2°48.525 4.809661 2.98 30.683783 7.17417
2004-03-11 07:46:36 51°15.09 2°48.486 4.818663 2.986631 30.766489 6.769657
2004-03-11 07:46:40 51°15.087 2°48.46 4.821562 2.99 30.816162 6.297725
2004-03-11 07:46:46 51°15.083 2°48.421 4.823647 2.98621 30.779499 7.17417
2004-03-11 07:46:50 51°15.08 2°48.395 4.819426 2.985263 30.768714 6.702238
2004-03-11 07:46:56 51°15.076 2°48.356 4.819426 2.985263 30.768714 6.702238
2004-03-11 07:47:00 51°15.073 2°48.33 4.808898 2.950948 30.377582 6.870785
2004-03-11 07:47:05 51°15.07 2°48.297 4.814544 2.956316 30.440201 6.837076
2004-03-11 07:47:10 51°15.066 2°48.264 4.809101 2.952632 30.40312 6.432563
2004-03-11 07:47:16 51°15.063 2°48.225 4.802793 2.92916 30.138809 6.837076
2004-03-11 07:47:20 51°15.06 2°48.199 4.804065 2.924108 30.086191 6.432563
2004-03-11 07:47:26 51°15.056 2°48.16 4.805642 2.942528 30.295446 7.073042
2004-03-11 07:47:30 51°15.054 2°48.134 4.805642 2.942528 30.295446 7.073042
2004-03-11 07:47:36 51°15.049 2°48.095 4.807219 2.956948 30.461002 6.634819
2004-03-11 07:47:40 51°15.047 2°48.069 4.806609 2.849174 29.242996 6.702238
2004-03-11 07:47:46 51°15.042 2°48.03 4.813933 2.911268 29.949094 6.668529
2004-03-11 07:47:50 51°15.039 2°48.004 4.804574 2.883798 29.636702 6.499982
2004-03-11 07:47:56 51°15.035 2°47.966 4.804574 2.883798 29.636702 6.499982
2004-03-11 07:48:01 51°15.031 2°47.933 4.803506 2.954948 30.447871 6.264016
2004-03-11 07:48:05 51°15.029 2°47.907 4.809661 2.964 30.554096 6.60111
2004-03-11 07:48:08 51°15.026 2°47.888 4.802081 2.918319 30.035481 6.668529
2004-03-11 07:48:16 51°15.021 2°47.836 4.806507 2.959369 30.504595 6.331435
2004-03-11 07:48:20 51°15.018 2°47.81 4.797299 2.957474 30.482229 6.499982
2004-03-11 07:48:25 51°15.014 2°47.778 4.792669 2.957159 30.481044 6.702238
2004-03-11 07:48:30 51°15.011 2°47.746 4.792669 2.957159 30.481044 6.702238
2004-03-11 07:48:36 51°15.006 2°47.708 4.795671 2.943686 30.329356 5.994341
2004-03-11 07:48:40 51°15.004 2°47.681 4.788293 2.905058 29.89199 7.309007
2004-03-11 07:48:46 51°14.999 2°47.643 4.793839 2.946212 30.361288 6.061759
2004-03-11 07:48:50 51°14.996 2°47.617 4.795671 2.647371 26.991335 6.398853
2004-03-11 07:48:56 51°14.991 2°47.578 4.789311 2.942844 30.327765 6.634819
2004-03-11 07:49:00 51°14.989 2°47.552 4.789311 2.942844 30.327765 6.634819
2004-03-11 07:49:06 51°14.985 2°47.514 4.788141 2.934529 30.239557 6.02805
2004-03-11 07:49:10 51°14.982 2°47.488 4.789922 2.936213 30.257916 5.960631
2004-03-11 07:49:16 51°14.978 2°47.449 4.801522 2.9079 29.936868 6.702238
2004-03-11 07:49:20 51°14.975 2°47.424 4.79272 2.952106 30.441986 6.702238
2004-03-11 07:49:25 51°14.971 2°47.391 4.784782 2.916951 30.046045 6.60111
2004-03-11 07:49:30 51°14.968 2°47.359 4.784782 2.916951 30.046045 6.60111
2004-03-11 07:49:36 51°14.963 2°47.321 4.789515 2.934634 30.248724 6.365144
2004-03-11 07:49:40 51°14.961 2°47.295 4.786767 2.930003 30.19206 6.533691
2004-03-11 07:49:45 51°14.958 2°47.263 4.795111 2.917267 30.047259 5.758375
2004-03-11 07:49:50 51°14.954 2°47.231 4.793941 2.932529 30.224774 6.297725
2004-03-11 07:49:56 51°14.95 2°47.193 4.793636 2.95137 30.440014 6.162888
2004-03-11 07:50:00 51°14.947 2°47.167 4.793636 2.95137 30.440014 6.162888
2004-03-11 07:50:06 51°14.943 2°47.129 4.787785 2.922214 30.109046 6.162888
2004-03-11 07:50:10 51°14.941 2°47.103 4.786614 2.950001 30.424433 5.960631
2004-03-11 07:50:14 51°14.938 2°47.078 4.790023 2.94558 30.371701 6.432563
2004-03-11 07:50:20 51°14.934 2°47.04 4.787276 2.922845 30.11464 5.994341
2004-03-11 07:50:26 51°14.93 2°47.002 4.788141 2.910952 29.982601 6.129178
2004-03-11 07:50:30 51°14.927 2°46.977 4.788141 2.910952 29.982601 6.129178
2004-03-11 07:50:36 51°14.923 2°46.939 4.791753 2.910426 29.97978 5.994341
2004-03-11 07:50:41 51°14.919 2°46.908 4.78926 2.923056 30.12259 5.859503
2004-03-11 07:50:46 51°14.916 2°46.876 4.789718 2.900533 29.86578 6.297725
2004-03-11 07:50:50 51°14.912 2°46.851 4.790125 2.923688 30.131361 6.331435
2004-03-11 07:50:56 51°14.907 2°46.814 4.790125 2.923688 30.131361 6.331435
2004-03-11 07:51:00 51°14.905 2°46.788 4.786105 2.926319 30.161292 6.297725
2004-03-11 07:51:05 51°14.9 2°46.758 4.788344 2.94758 30.40328 5.859503
2004-03-11 07:51:10 51°14.898 2°46.726 4.790023 2.956422 30.504789 6.432563
2004-03-11 07:51:16 51°14.893 2°46.688 4.799232 2.94316 30.354544 5.825794
2004-03-11 07:51:20 51°14.89 2°46.663 4.794196 2.917478 30.063117 5.522409
2004-03-11 07:51:26 51°14.886 2°46.626 4.794196 2.917478 30.063117 5.522409
2004-03-11 07:51:30 51°14.883 2°46.601 4.796536 2.963264 30.585168 6.230306
2004-03-11 07:51:36 51°14.879 2°46.563 4.805439 2.938844 30.304616 5.960631
2004-03-11 07:51:40 51°14.877 2°46.538 4.789057 2.942633 30.345353 6.095469
2004-03-11 07:51:45 51°14.874 2°46.506 4.789413 2.741634 28.066935 5.690956
2004-03-11 07:51:50 51°14.871 2°46.475 4.795162 2.953791 30.46919 5.724665
2004-03-11 07:51:56 51°14.868 2°46.437 4.792059 2.904216 29.903691 6.533691
2004-03-11 07:52:00 51°14.866 2°46.411 4.792059 2.904216 29.903691 6.533691
2004-03-11 07:52:05 51°14.863 2°46.38 4.794043 2.937792 30.289442 6.129178
2004-03-11 07:52:10 51°14.861 2°46.348 4.802743 2.92053 30.097036 5.825794
2004-03-11 07:52:16 51°14.858 2°46.31 4.799843 2.933266 30.246707 6.230306
2004-03-11 07:52:21 51°14.854 2°46.279 4.795671 2.939476 30.311805 6.264016
2004-03-11 07:52:26 51°14.851 2°46.247 4.791601 2.932634 30.233142 5.623537
2004-03-11 07:52:30 51°14.847 2°46.222 4.791601 2.932634 30.233142 5.623537
2004-03-11 07:52:36 51°14.842 2°46.184 4.787479 2.94537 30.37731 5.994341
2004-03-11 07:52:40 51°14.839 2°46.159 4.802793 2.954106 30.475196 5.758375
2004-03-11 07:52:45 51°14.834 2°46.128 4.787734 2.89506 29.805972 5.758375
2004-03-11 07:52:50 51°14.83 2°46.096 4.802488 2.946528 30.3953 5.825794
2004-03-11 07:52:56 51°14.825 2°46.058 4.80086 2.971685 30.68359 6.129178
2004-03-11 07:53:00 51°14.822 2°46.033 4.80086 2.971685 30.68359 6.129178
2004-03-11 07:53:06 51°14.818 2°45.994 4.795722 2.916004 30.047946 5.994341
2004-03-11 07:53:10 51°14.816 2°45.968 4.789667 2.959475 30.545205 6.264016
2004-03-11 07:53:14 51°14.814 2°45.942 4.810932 2.925582 30.159271 6.095469
2004-03-11 07:53:20 51°14.813 2°45.903 4.819833 2.967895 30.637153 6.264016
2004-03-11 07:53:26 51°14.812 2°45.863 4.826953 2.946107 30.388903 6.398853
2004-03-11 07:53:30 51°14.812 2°45.837 4.826953 2.946107 30.388903 6.398853
2004-03-11 07:53:34 51°14.812 2°45.81 4.813781 2.953475 30.473625 6.264016
2004-03-11 07:53:40 51°14.812 2°45.77 4.800352 2.960738 30.555572 6.297725
2004-03-11 07:53:45 51°14.811 2°45.737 4.804777 2.96779 30.623035 5.825794
2004-03-11 07:53:50 51°14.81 2°45.703 4.798367 2.948212 30.394448 5.45499
2004-03-11 07:53:56 51°14.807 2°45.663 4.79562 2.938212 30.283059 6.129178
2004-03-11 07:54:01 51°14.805 2°45.63 4.79562 2.938212 30.283059 6.129178
2004-03-11 07:54:06 51°14.801 2°45.596 4.789158 2.879904 29.626871 5.623537
2004-03-11 07:54:10 51°14.798 2°45.57 4.788293 2.96358 30.583123 6.634819
2004-03-11 07:54:16 51°14.793 2°45.53 4.796994 2.962738 30.57917 5.589828
2004-03-11 07:54:20 51°14.791 2°45.504 4.775877 2.924845 30.150888 6.466272
2004-03-11 07:54:26 51°14.786 2°45.464 4.777658 2.894849 29.812224 5.724665
2004-03-11 07:54:30 51°14.784 2°45.438 4.777658 2.894849 29.812224 5.724665
2004-03-11 07:54:36 51°14.779 2°45.398 4.773536 2.969474 30.666472 5.792084
2004-03-11 07:54:41 51°14.776 2°45.365 4.76417 2.956949 30.52366 6.196597
2004-03-11 07:54:45 51°14.773 2°45.339 4.770482 2.937265 30.303421 5.926922
2004-03-11 07:54:50 51°14.769 2°45.306 4.75908 2.942528 30.368169 6.095469
2004-03-11 07:54:56 51°14.766 2°45.266 4.761931 2.842334 29.230986 5.657247
2004-03-11 07:55:01 51°14.762 2°45.233 4.761931 2.842334 29.230986 5.657247
2004-03-11 07:55:06 51°14.759 2°45.2 4.768751 2.964001 30.620208 5.690956
2004-03-11 07:55:08 51°14.757 2°45.187 4.76305 2.858541 29.422568 5.825794
2004-03-11 07:55:16 51°14.752 2°45.134 4.766868 2.92032 30.127999 5.589828
2004-03-11 07:55:20 51°14.75 2°45.107 4.759436 2.933371 30.278242 5.623537
2004-03-11 07:55:26 51°14.746 2°45.068 4.759436 2.933371 30.278242 5.623537
2004-03-11 07:55:30 51°14.743 2°45.042 4.764374 2.95537 30.529016 5.690956
2004-03-11 07:55:36 51°14.738 2°45.002 4.765392 2.927267 30.209496 5.623537
2004-03-11 07:55:40 51°14.736 2°44.976 4.770278 2.943476 30.395 5.792084
2004-03-11 07:55:46 51°14.731 2°44.937 4.769515 2.963054 30.619097 5.286443
2004-03-11 07:55:50 51°14.728 2°44.91 4.76809 2.959791 30.581059 5.724665
2004-03-11 07:55:56 51°14.724 2°44.871 4.771551 2.951791 30.489006 5.657247
2004-03-11 07:56:00 51°14.721 2°44.845 4.771551 2.951791 30.489006 5.657247
2004-03-11 07:56:05 51°14.717 2°44.812 4.77547 2.961054 30.593855 5.657247
2004-03-11 07:56:10 51°14.714 2°44.778 4.773383 2.837388 29.188004 6.129178
2004-03-11 07:56:16 51°14.709 2°44.739 4.774197 2.968527 30.675085 5.4887
2004-03-11 07:56:20 51°14.707 2°44.713 4.775724 2.927056 30.203909 5.589828
2004-03-11 07:56:26 51°14.703 2°44.673 4.773027 2.922109 30.143599 5.758375
2004-03-11 07:56:30 51°14.701 2°44.647 4.773027 2.922109 30.143599 5.758375
2004-03-11 07:56:36 51°14.696 2°44.608 4.77491 2.95337 30.497352 5.45499
2004-03-11 07:56:40 51°14.693 2°44.582 4.776996 2.935476 30.295031 5.758375
2004-03-11 07:56:44 51°14.691 2°44.556 4.779541 2.956633 30.536975 5.792084
2004-03-11 07:56:50 51°14.686 2°44.517 4.775521 2.952949 30.494966 5.926922
2004-03-11 07:56:56 51°14.682 2°44.477 4.779287 2.957264 30.544983 5.522409
2004-03-11 07:57:00 51°14.679 2°44.451 4.779287 2.957264 30.544983 5.522409
2004-03-11 07:57:05 51°14.676 2°44.418 4.774146 2.945686 30.411369 6.365144
2004-03-11 07:57:10 51°14.672 2°44.386 4.776131 2.120676 21.201211 5.926922
2004-03-11 07:57:16 51°14.668 2°44.346 4.775571 2.950423 30.464556 5.825794
2004-03-11 07:57:20 51°14.665 2°44.321 4.779337 2.979264 30.792763 5.657247
2004-03-11 07:57:26 51°14.66 2°44.282 4.778014 2.965054 30.632216 5.522409
2004-03-11 07:57:30 51°14.656 2°44.256 4.778014 2.965054 30.632216 5.522409
2004-03-11 07:57:36 51°14.651 2°44.217 4.779388 2.932003 30.256264 5.994341
2004-03-11 07:57:40 51°14.647 2°44.191 4.784935 2.954738 30.514564 5.792084
2004-03-11 07:57:46 51°14.643 2°44.152 4.781729 2.968422 30.671456 6.061759
2004-03-11 07:57:50 51°14.639 2°44.126 4.782849 2.975369 30.749118 5.859503
2004-03-11 07:57:56 51°14.634 2°44.086 4.782849 2.975369 30.749118 5.859503
2004-03-11 07:58:00 51°14.632 2°44.06 4.783052 2.917057 30.086089 5.960631
2004-03-11 07:58:06 51°14.627 2°44.021 4.781526 2.978317 30.781949 5.859503
2004-03-11 07:58:10 51°14.625 2°43.995 4.786767 2.933582 30.270254 6.02805
2004-03-11 07:58:14 51°14.621 2°43.968 4.786258 2.978211 30.77831 6.230306
2004-03-11 07:58:21 51°14.617 2°43.923 4.786513 2.870433 29.551345 5.623537
2004-03-11 07:58:25 51°14.613 2°43.896 4.786513 2.870433 29.551345 5.623537
2004-03-11 07:58:29 51°14.611 2°43.87 4.78926 2.977685 30.773927 6.297725
2004-03-11 07:58:36 51°14.605 2°43.825 4.788344 2.981896 30.82118 5.286443
2004-03-11 07:58:41 51°14.602 2°43.792 4.789006 2.972106 30.707825 5.994341
2004-03-11 07:58:46 51°14.598 2°43.759 4.791245 2.939476 30.336597 6.02805
2004-03-11 07:58:50 51°14.595 2°43.733 4.78982 2.954001 30.500528 5.623537
2004-03-11 07:58:54 51°14.592 2°43.707 4.78982 2.954001 30.500528 5.623537
2004-03-11 07:59:00 51°14.588 2°43.668 4.791295 2.965896 30.635355 5.792084
2004-03-11 07:59:06 51°14.583 2°43.628 4.789464 2.916846 30.074964 5.859503
2004-03-11 07:59:10 51°14.58 2°43.602 4.79099 2.961685 30.585721 5.657247
2004-03-11 07:59:16 51°14.576 2°43.562 4.793076 2.955791 30.519318 5.758375
2004-03-11 07:59:20 51°14.572 2°43.536 4.789973 2.956001 30.520913 5.421281
2004-03-11 07:59:26 51°14.568 2°43.497 4.793738 2.964843 30.620926 5.792084
2004-03-11 07:59:30 51°14.564 2°43.47 4.793738 2.964843 30.620926 5.792084
2004-03-11 07:59:34 51°14.562 2°43.444 4.794348 2.958738 30.55292 5.758375
2004-03-11 07:59:40 51°14.556 2°43.404 4.796434 2.97779 30.768633 5.690956
2004-03-11 07:59:45 51°14.553 2°43.371 4.797503 2.863382 29.465858 5.792084
2004-03-11 07:59:50 51°14.549 2°43.339 4.798571 2.924109 30.154431 5.657247
2004-03-11 07:59:56 51°14.544 2°43.299 4.797146 2.958843 30.552508 5.724665
2004-03-11 08:00:01 51°14.539 2°43.266 4.797146 2.958843 30.552508 5.724665
2004-03-11 08:00:06 51°14.536 2°43.233 4.800555 2.95758 30.536496 5.960631
2004-03-11 08:00:10 51°14.532 2°43.206 4.799029 2.980001 30.793049 5.690956
2004-03-11 08:00:16 51°14.527 2°43.167 4.802183 2.948423 30.43132 6.095469
2004-03-11 08:00:20 51°14.524 2°43.14 4.803251 2.942634 30.364562 5.758375
2004-03-11 08:00:26 51°14.519 2°43.101 4.802183 2.936002 30.28744 5.758375
2004-03-11 08:00:30 51°14.516 2°43.074 4.802183 2.936002 30.28744 5.758375
2004-03-11 08:00:36 51°14.512 2°43.035 4.804777 2.969369 30.667698 6.365144
2004-03-11 08:00:40 51°14.508 2°43.008 4.809305 2.893271 29.800575 5.690956
2004-03-11 08:00:45 51°14.504 2°42.975 4.807168 2.960317 30.561248 6.061759
2004-03-11 08:00:50 51°14.499 2°42.942 4.806405 2.943055 30.364553 5.589828
2004-03-11 08:00:56 51°14.495 2°42.903 4.807524 2.979685 30.781324 5.758375
2004-03-11 08:01:00 51°14.492 2°42.876 4.807524 2.979685 30.781324 5.758375
2004-03-11 08:01:06 51°14.487 2°42.837 4.805897 2.970632 30.676441 5.960631
2004-03-11 08:01:10 51°14.484 2°42.81 4.805235 2.935476 30.274261 5.859503
2004-03-11 08:01:16 51°14.478 2°42.771 4.807626 2.705547 27.671488 5.825794
2004-03-11 08:01:20 51°14.475 2°42.744 4.809508 2.942423 30.354158 5.657247
2004-03-11 08:01:26 51°14.471 2°42.705 4.809508 2.942423 30.354158 5.657247
2004-03-11 08:01:30 51°14.467 2°42.679 4.809152 2.952107 30.46607 5.792084
2004-03-11 08:01:36 51°14.463 2°42.639 4.810322 2.936423 30.28824 5.657247
2004-03-11 08:01:40 51°14.46 2°42.613 4.808796 2.933371 30.252691 5.690956
2004-03-11 08:01:46 51°14.455 2°42.573 4.814035 2.89085 29.769145 5.994341
2004-03-11 08:01:50 51°14.452 2°42.547 4.810424 2.908216 29.964136 5.657247
2004-03-11 08:01:56 51°14.447 2°42.507 4.81078 2.929371 30.203978 5.926922
2004-03-11 08:02:00 51°14.444 2°42.481 4.81078 2.929371 30.203978 5.926922
2004-03-11 08:02:05 51°14.441 2°42.448 4.809254 2.982106 30.804887 6.02805
2004-03-11 08:02:10 51°14.437 2°42.415 4.810525 2.929161 30.19999 5.960631
2004-03-11 08:02:16 51°14.433 2°42.375 4.811848 2.954527 30.488832 5.893212
2004-03-11 08:02:21 51°14.429 2°42.342 4.809559 2.95979 30.549609 5.825794
2004-03-11 08:02:25 51°14.426 2°42.316 4.809559 2.95979 30.549609 5.825794
2004-03-11 08:02:30 51°14.423 2°42.283 4.813679 2.954633 30.491639 5.825794
2004-03-11 08:02:36 51°14.419 2°42.243 4.808999 2.938739 30.310609 6.331435
2004-03-11 08:02:40 51°14.417 2°42.216 4.811238 2.949159 30.428479 5.926922
2004-03-11 08:02:46 51°14.412 2°42.177 4.807728 2.990422 30.898973 6.230306
2004-03-11 08:02:50 51°14.41 2°42.15 4.811085 2.938002 30.301422 5.45499
2004-03-11 08:02:56 51°14.406 2°42.111 4.810424 2.95958 30.548015 6.533691
2004-03-11 08:03:01 51°14.403 2°42.078 4.810424 2.95958 30.548015 6.533691
2004-03-11 08:03:06 51°14.4 2°42.045 4.811288 2.967685 30.640408 5.960631
2004-03-11 08:03:10 51°14.397 2°42.018 4.811543 2.880326 29.646491 5.792084
2004-03-11 08:03:16 51°14.394 2°41.979 4.814238 2.958001 30.530021 5.859503
2004-03-11 08:03:20 51°14.391 2°41.952 4.808796 2.906111 29.937838 5.926922
2004-03-11 08:03:26 51°14.388 2°41.913 4.810118 2.960738 30.560406 6.095469
2004-03-11 08:03:30 51°14.384 2°41.886 4.810118 2.960738 30.560406 6.095469
2004-03-11 08:03:36 51°14.382 2°41.846 4.810475 2.948844 30.424882 6.702238
2004-03-11 08:03:40 51°14.378 2°41.82 4.811238 2.907374 29.952195 5.792084
2004-03-11 08:03:46 51°14.375 2°41.781 4.809508 2.912321 30.010807 6.466272
2004-03-11 08:03:50 51°14.372 2°41.754 4.809762 2.918004 30.074651 6.398853
2004-03-11 08:03:56 51°14.368 2°41.714 4.808491 2.956527 30.514033 6.297725
2004-03-11 08:04:01 51°14.365 2°41.681 4.808491 2.956527 30.514033 6.297725
2004-03-11 08:04:06 51°14.363 2°41.648 4.809712 2.976106 30.73725 5.825794
2004-03-11 08:04:10 51°14.36 2°41.622 4.816629 2.941265 30.340973 5.960631
2004-03-11 08:04:14 51°14.358 2°41.595 4.813933 2.904111 29.919053 6.533691
2004-03-11 08:04:20 51°14.354 2°41.556 4.819579 2.073297 20.670744 5.792084
2004-03-11 08:04:26 51°14.351 2°41.516 4.819324 2.932845 30.244307 6.162888
2004-03-11 08:04:30 51°14.348 2°41.489 4.819324 2.932845 30.244307 6.162888
2004-03-11 08:04:36 51°14.345 2°41.449 4.821511 2.969264 30.658411 5.926922
2004-03-11 08:04:40 51°14.343 2°41.422 4.823088 2.879799 29.638172 5.893212
2004-03-11 08:04:45 51°14.34 2°41.39 4.822172 2.972211 30.687974 6.432563
2004-03-11 08:04:50 51°14.337 2°41.356 4.818104 2.957054 30.513593 6.398853
2004-03-11 08:04:54 51°14.335 2°41.33 4.81729 2.978001 30.749133 6.365144
2004-03-11 08:05:00 51°14.331 2°41.29 4.81729 2.978001 30.749133 6.365144
2004-03-11 08:05:06 51°14.328 2°41.25 4.817188 2.941791 30.336567 6.533691
2004-03-11 08:05:10 51°14.326 2°41.223 4.820748 2.97179 30.679128 6.196597
2004-03-11 08:05:14 51°14.323 2°41.197 4.818562 2.96779 30.635953 6.432563
2004-03-11 08:05:20 51°14.32 2°41.157 4.819986 2.914005 30.025207 5.926922
2004-03-11 08:05:26 51°14.317 2°41.117 4.819986 2.914005 30.025207 5.926922
2004-03-11 08:05:30 51°14.315 2°41.091 4.820189 2.983264 30.813224 6.634819
2004-03-11 08:05:36 51°14.311 2°41.051 4.820647 2.912741 30.009264 6.02805
2004-03-11 08:05:40 51°14.309 2°41.024 4.817748 2.982948 30.807996 6.5674
2004-03-11 08:05:46 51°14.305 2°40.984 4.819019 2.892008 29.772092 5.859503
2004-03-11 08:05:50 51°14.304 2°40.958 4.81907 2.963896 30.590753 6.634819
2004-03-11 08:05:56 51°14.3 2°40.918 4.819833 2.972422 30.687947 6.264016
2004-03-11 08:06:00 51°14.298 2°40.891 4.819833 2.972422 30.687947 6.264016
2004-03-11 08:06:04 51°14.296 2°40.865 4.819477 2.953685 30.474416 5.893212
2004-03-11 08:06:10 51°14.293 2°40.825 4.821766 2.945896 30.386506 6.466272
2004-03-11 08:06:16 51°14.289 2°40.785 4.821359 2.948528 30.415671 5.926922
2004-03-11 08:06:20 51°14.287 2°40.759 4.820443 2.936108 30.274266 6.499982
2004-03-11 08:06:26 51°14.283 2°40.719 4.820443 2.936108 30.274266 6.499982
2004-03-11 08:06:30 51°14.281 2°40.693 4.823088 2.906321 29.935496 5.994341
2004-03-11 08:06:34 51°14.278 2°40.666 4.820392 2.938002 30.295032 5.825794
2004-03-11 08:06:40 51°14.275 2°40.626 4.822935 2.833073 29.105288 6.365144
2004-03-11 08:06:46 51°14.271 2°40.587 4.82263 2.906216 29.93351 5.994341
2004-03-11 08:06:50 51°14.27 2°40.561 4.825325 2.954422 30.481203 6.466272
2004-03-11 08:06:56 51°14.266 2°40.521 4.827919 2.983369 30.8128 5.994341
2004-03-11 08:07:00 51°14.264 2°40.494 4.827919 2.983369 30.8128 5.994341
2004-03-11 08:07:06 51°14.261 2°40.455 4.827868 2.95958 30.540768 6.398853
2004-03-11 08:07:11 51°14.258 2°40.421 4.830105 2.958633 30.530778 6.297725
2004-03-11 08:07:16 51°14.256 2°40.388 4.827461 2.126033 21.238468 6.162888
2004-03-11 08:07:20 51°14.254 2°40.362 4.824563 2.97979 30.767919 5.960631
2004-03-11 08:07:26 51°14.251 2°40.322 4.821206 2.941265 30.327378 5.825794
2004-03-11 08:07:30 51°14.249 2°40.295 4.821206 2.941265 30.327378 5.825794
2004-03-11 08:07:36 51°14.245 2°40.256 4.819986 2.987264 30.853981 5.859503
2004-03-11 08:07:40 51°14.243 2°40.229 4.821003 2.990001 30.881952 6.331435
2004-03-11 08:07:46 51°14.24 2°40.19 4.820748 2.976737 30.733108 5.758375
2004-03-11 08:07:50 51°14.238 2°40.164 4.816832 2.980106 30.773143 6.196597
2004-03-11 08:07:56 51°14.235 2°40.125 4.821003 2.909268 29.968991 6.297725
2004-03-11 08:08:01 51°14.232 2°40.092 4.821003 2.909268 29.968991 6.297725
2004-03-11 08:08:06 51°14.23 2°40.059 4.821003 2.968843 30.646337 5.859503
2004-03-11 08:08:10 51°14.228 2°40.032 4.821206 2.963474 30.586761 6.196597
2004-03-11 08:08:16 51°14.225 2°39.992 4.824207 2.959264 30.54039 6.466272
2004-03-11 08:08:20 51°14.223 2°39.965 4.825173 2.992211 30.915323 5.994341
2004-03-11 08:08:26 51°14.22 2°39.925 4.825529 2.939476 30.312604 6.02805
2004-03-11 08:08:30 51°14.218 2°39.898 4.825529 2.939476 30.312604 6.02805
2004-03-11 08:08:36 51°14.216 2°39.858 4.824563 2.968106 30.639553 6.196597
2004-03-11 08:08:41 51°14.213 2°39.826 4.827054 2.946317 30.389698 5.926922
2004-03-11 08:08:45 51°14.211 2°39.8 4.824868 3.003159 31.037034 6.196597
2004-03-11 08:08:50 51°14.208 2°39.767 4.825376 2.948633 30.415266 5.657247
2004-03-11 08:08:56 51°14.205 2°39.727 4.825376 2.948633 30.415266 5.657247
2004-03-11 08:09:00 51°14.202 2°39.701 4.828173 2.963369 30.583143 5.994341
2004-03-11 08:09:06 51°14.199 2°39.662 4.826393 2.982948 30.80556 6.432563
2004-03-11 08:09:10 51°14.197 2°39.636 4.829597 2.947896 30.406876 5.792084
2004-03-11 08:09:16 51°14.194 2°39.596 4.830512 2.897901 29.837464 6.196597
2004-03-11 08:09:20 51°14.19 2°39.57 4.836309 3.017476 31.201384 6.196597
2004-03-11 08:09:26 51°14.187 2°39.53 4.83702 1.904003 18.830036 5.724665
2004-03-11 08:09:31 51°14.185 2°39.498 4.83702 1.904003 18.830036 5.724665
2004-03-11 08:09:36 51°14.182 2°39.465 4.839664 2.985369 30.833178 6.365144
2004-03-11 08:09:41 51°14.179 2°39.433 4.839563 2.954212 30.476395 6.264016
2004-03-11 08:09:46 51°14.176 2°39.4 4.8388 2.976106 30.722667 6.129178
2004-03-11 08:09:50 51°14.174 2°39.373 4.839918 2.92695 30.158142 6.466272
2004-03-11 08:09:56 51°14.172 2°39.334 4.839563 2.952422 30.449593 6.264016
2004-03-11 08:10:00 51°14.17 2°39.309 4.839563 2.952422 30.449593 6.264016
2004-03-11 08:10:06 51°14.167 2°39.269 4.844596 2.981579 30.779403 5.859503
2004-03-11 08:10:11 51°14.164 2°39.236 4.849374 2.965264 30.594251 6.365144
2004-03-11 08:10:14 51°14.163 2°39.216 4.853288 3.003159 31.025582 6.02805
2004-03-11 08:10:20 51°14.159 2°39.177 4.855372 2.041259 20.307815 6.095469
2004-03-11 08:10:26 51°14.156 2°39.139 4.858981 2.993159 30.907393 5.960631
2004-03-11 08:10:30 51°14.154 2°39.113 4.858981 2.993159 30.907393 5.960631
2004-03-11 08:10:36 51°14.15 2°39.074 4.860353 2.995264 30.928965 6.331435
2004-03-11 08:10:40 51°14.147 2°39.047 4.861217 2.964316 30.572985 6.432563
2004-03-11 08:10:46 51°14.145 2°39.009 4.859896 2.95779 30.494655 6.297725
2004-03-11 08:10:50 51°14.142 2°38.983 4.859845 3.023055 31.235498 6.162888
2004-03-11 08:10:56 51°14.139 2°38.943 4.861014 2.947264 30.370064 6.432563
2004-03-11 08:11:00 51°14.136 2°38.917 4.861014 2.947264 30.370064 6.432563
2004-03-11 08:11:06 51°14.134 2°38.877 4.861624 2.94337 30.324167 6.60111
2004-03-11 08:11:10 51°14.132 2°38.85 4.859743 2.966842 30.591282 6.837076
2004-03-11 08:11:16 51°14.129 2°38.811 4.860862 2.959895 30.512192 5.893212
2004-03-11 08:11:21 51°14.127 2°38.779 4.863962 3.005475 31.03239 6.264016
2004-03-11 08:11:26 51°14.124 2°38.745 4.861471 2.987895 30.829492 6.668529
2004-03-11 08:11:30 51°14.122 2°38.719 4.861471 2.987895 30.829492 6.668529
2004-03-11 08:11:36 51°14.119 2°38.678 4.862437 2.981579 30.758329 6.365144
2004-03-11 08:11:40 51°14.117 2°38.651 4.863098 2.943686 30.32696 6.702238
2004-03-11 08:11:46 51°14.113 2°38.61 4.863911 2.957264 30.480636 6.837076
2004-03-11 08:11:51 51°14.111 2°38.576 4.866604 2.994 30.898275 6.938204
2004-03-11 08:11:54 51°14.109 2°38.555 4.865232 2.972527 30.654397 6.398853
2004-03-11 08:12:00 51°14.106 2°38.515 4.865232 2.972527 30.654397 6.398853
2004-03-11 08:12:06 51°14.103 2°38.475 4.864572 2.983053 30.7735 6.803366
2004-03-11 08:12:10 51°14.1 2°38.448 4.866249 2.990106 30.853063 6.702238
2004-03-11 08:12:16 51°14.095 2°38.408 4.864724 2.981895 30.759497 6.466272
2004-03-11 08:12:20 51°14.091 2°38.382 4.863301 2.962632 30.539325 6.702238
2004-03-11 08:12:26 51°14.083 2°38.343 4.863301 2.94337 30.319377 6.533691
2004-03-11 08:12:30 51°14.078 2°38.319 4.863301 2.94337 30.319377 6.533691
2004-03-11 08:12:36 51°14.069 2°38.28 4.866198 3.000632 30.971446 6.735947
2004-03-11 08:12:40 51°14.062 2°38.256 4.867672 2.941265 30.297035 6.634819
2004-03-11 08:12:46 51°14.052 2°38.219 4.874329 2.973369 30.662373 6.466272
2004-03-11 08:12:50 51°14.045 2°38.195 4.873871 2.988211 30.83228 6.904494
2004-03-11 08:12:56 51°14.035 2°38.159 4.874887 3.020002 31.194889 6.129178
2004-03-11 08:13:00 51°14.027 2°38.136 4.874887 3.020002 31.194889 6.129178
2004-03-11 08:13:06 51°14.016 2°38.1 4.874837 2.972632 30.653982 6.837076
2004-03-11 08:13:10 51°14.008 2°38.076 4.875396 2.988527 30.832631 6.634819
2004-03-11 08:13:16 51°13.999 2°38.04 4.878597 2.221966 22.260243 6.60111
2004-03-11 08:13:20 51°13.991 2°38.017 4.887234 3.004948 31.01985 7.106751
2004-03-11 08:13:25 51°13.983 2°37.985 4.882357 2.962106 30.526904 6.398853
2004-03-11 08:13:30 51°13.974 2°37.956 4.882357 2.962106 30.526904 6.398853
2004-03-11 08:13:36 51°13.965 2°37.919 4.881696 3.003369 30.996945 7.71352
2004-03-11 08:13:40 51°13.958 2°37.895 4.882661 2.876431 29.551649 6.634819
2004-03-11 08:13:46 51°13.948 2°37.858 4.883627 2.998632 30.937235 6.870785
2004-03-11 08:13:50 51°13.941 2°37.834 4.890333 2.973368 30.647042 6.702238
2004-03-11 08:13:54 51°13.935 2°37.809 4.890333 2.973368 30.647042 6.702238
2004-03-11 08:14:00 51°13.925 2°37.772 4.891857 2.998632 30.935607 6.60111
2004-03-11 08:14:06 51°13.915 2°37.735 4.896225 3.018528 31.161655 6.702238
2004-03-11 08:14:10 51°13.908 2°37.71 4.891907 3.01358 31.103581 6.702238
2004-03-11 08:14:16 51°13.898 2°37.673 4.89145 2.982526 30.748072 6.769657
2004-03-11 08:14:21 51°13.89 2°37.643 4.896581 2.990632 30.837951 6.432563
2004-03-11 08:14:26 51°13.882 2°37.611 4.889317 2.9059 29.873232 6.870785
2004-03-11 08:14:29 51°13.877 2°37.592 4.889317 2.9059 29.873232 6.870785
2004-03-11 08:14:36 51°13.865 2°37.549 4.889571 3.028423 31.267163 6.938204
2004-03-11 08:14:40 51°13.859 2°37.524 4.890079 3.000316 30.946659 6.870785
2004-03-11 08:14:44 51°13.852 2°37.499 4.890891 3.011159 31.067793 6.803366
2004-03-11 08:14:50 51°13.843 2°37.462 4.89145 3.029792 31.281957 6.904494
2004-03-11 08:14:56 51°13.833 2°37.425 4.890942 2.987263 30.798775 6.735947
2004-03-11 08:15:00 51°13.827 2°37.4 4.890942 2.987263 30.798775 6.735947
2004-03-11 08:15:06 51°13.818 2°37.363 4.896682 2.992105 30.853926 6.634819
2004-03-11 08:15:10 51°13.811 2°37.339 4.899222 2.974211 30.650175 6.533691
2004-03-11 08:15:14 51°13.804 2°37.314 4.903184 2.949895 30.373608 7.039332
2004-03-11 08:15:21 51°13.793 2°37.272 4.907399 2.969368 30.594269 6.634819
2004-03-11 08:15:25 51°13.786 2°37.247 4.905723 3.027476 31.253885 6.769657
2004-03-11 08:15:30 51°13.779 2°37.216 4.905723 3.027476 31.253885 6.769657
2004-03-11 08:15:36 51°13.769 2°37.179 4.906739 3.012317 31.079359 6.803366
2004-03-11 08:15:40 51°13.762 2°37.155 4.908161 2.934212 30.187455 7.106751
2004-03-11 08:15:46 51°13.752 2°37.118 4.908517 3.00979 31.044842 7.207879
2004-03-11 08:15:50 51°13.746 2°37.094 4.912478 2.977368 30.674012 7.039332
2004-03-11 08:15:56 51°13.736 2°37.057 4.918774 2.991789 30.837347 6.668529
2004-03-11 08:16:00 51°13.729 2°37.033 4.918774 2.991789 30.837347 6.668529
2004-03-11 08:16:06 51°13.72 2°36.996 4.921212 3.008738 31.030396 7.342717
2004-03-11 08:16:10 51°13.714 2°36.971 4.927711 3.009474 31.036344 7.511264
2004-03-11 08:16:16 51°13.704 2°36.934 4.931874 3.04053 31.389654 6.735947
2004-03-11 08:16:20 51°13.698 2°36.91 4.936798 2.962947 30.501964 7.578683
2004-03-11 08:16:26 51°13.688 2°36.873 4.936798 2.962947 30.501964 7.578683
2004-03-11 08:16:30 51°13.682 2°36.848 4.942788 2.841281 29.119221 7.14046
2004-03-11 08:16:36 51°13.672 2°36.811 4.945833 3.031476 31.274023 7.342717
2004-03-11 08:16:40 51°13.666 2°36.785 4.951416 2.946316 30.301045 7.983195
2004-03-11 08:16:46 51°13.656 2°36.747 4.95512 3.003053 30.941216 7.646101
2004-03-11 08:16:50 51°13.65 2°36.722 4.958419 3.009158 31.005839 7.612392
2004-03-11 08:16:56 51°13.641 2°36.685 4.961159 3.002947 30.931077 7.814648
2004-03-11 08:17:00 51°13.635 2°36.66 4.961159 3.002947 30.931077 7.814648
2004-03-11 08:17:06 51°13.625 2°36.622 4.965117 3.024317 31.171111 7.983195
2004-03-11 08:17:10 51°13.619 2°36.598 4.965269 3.031686 31.250958 7.915777
2004-03-11 08:17:16 51°13.61 2°36.56 4.966386 2.941053 30.216686 8.353999
2004-03-11 08:17:20 51°13.603 2°36.535 4.969582 2.978947 30.644432 7.74723
2004-03-11 08:17:25 51°13.595 2°36.504 4.969582 2.978947 30.644432 7.74723
2004-03-11 08:17:30 51°13.587 2°36.473 4.971713 2.87622 29.476359 7.646101
2004-03-11 08:17:34 51°13.581 2°36.448 4.977547 3.030002 31.219469 8.353999
2004-03-11 08:17:41 51°13.569 2°36.405 4.979272 3.023475 31.144339 7.949486
2004-03-11 08:17:45 51°13.563 2°36.38 4.985207 3.026107 31.172663 8.118033
2004-03-11 08:17:50 51°13.555 2°36.349 4.986069 3.026001 31.16901 7.882067
2004-03-11 08:17:56 51°13.545 2°36.312 4.989924 3.022212 31.121789 8.118033
2004-03-11 08:18:00 51°13.539 2°36.287 4.989924 3.022212 31.121789 8.118033
2004-03-11 08:18:06 51°13.53 2°36.25 4.993779 2.577422 26.112956 8.050614
2004-03-11 08:18:10 51°13.523 2°36.226 4.993576 2.937685 30.156322 8.118033
2004-03-11 08:18:14 51°13.517 2°36.201 4.996416 3.001263 30.873795 7.949486
2004-03-11 08:18:21 51°13.506 2°36.157 5.00027 3.00021 30.860213 8.320289
2004-03-11 08:18:26 51°13.498 2°36.126 5.001335 3.037371 31.280406 8.050614
2004-03-11 08:18:30 51°13.492 2°36.102 5.001335 3.037371 31.280406 8.050614
2004-03-11 08:18:34 51°13.486 2°36.077 5.00245 2.916003 29.901357 8.151742
2004-03-11 08:18:41 51°13.475 2°36.033 5.004986 2.819813 28.813207 8.320289
2004-03-11 08:18:45 51°13.469 2°36.008 5.008434 3.054425 31.468016 8.28658
2004-03-11 08:18:50 51°13.46 2°35.978 5.011527 2.985578 30.683538 8.488836
2004-03-11 08:18:56 51°13.452 2°35.94 5.017104 3.013369 30.996777 7.74723
2004-03-11 08:19:01 51°13.443 2°35.91 5.017104 3.013369 30.996777 7.74723
2004-03-11 08:19:06 51°13.436 2°35.878 5.01974 2.978736 30.60187 8.85964
2004-03-11 08:19:10 51°13.429 2°35.854 5.024201 3.03158 31.199774 8.28658
2004-03-11 08:19:16 51°13.419 2°35.817 5.028459 3.03537 31.239609 8.421418
2004-03-11 08:19:20 51°13.413 2°35.793 5.030436 3.014211 30.996596 9.028187
2004-03-11 08:19:24 51°13.407 2°35.768 5.032869 2.985473 30.666261 8.185452
2004-03-11 08:19:30 51°13.396 2°35.731 5.032869 2.985473 30.666261 8.185452
2004-03-11 08:19:36 51°13.386 2°35.695 5.033528 3.056004 31.464547 8.758512
2004-03-11 08:19:41 51°13.377 2°35.665 5.039255 2.985157 30.655447 8.758512
2004-03-11 08:19:45 51°13.37 2°35.641 5.03961 3.01979 31.045353 8.455127
2004-03-11 08:19:50 51°13.361 2°35.611 5.039204 3.052425 31.413103 8.960768
2004-03-11 08:19:54 51°13.354 2°35.587 5.040623 3.13739 32.380899 8.387708
2004-03-11 08:20:00 51°13.342 2°35.552 5.040623 3.13739 32.380899 8.387708
2004-03-11 08:20:06 51°13.33 2°35.517 5.044171 3.139812 32.406018 8.758512
2004-03-11 08:20:10 51°13.323 2°35.493 5.044677 3.141181 32.421655 8.252871
2004-03-11 08:20:16 51°13.311 2°35.458 5.046907 3.141497 32.422715 8.724802
2004-03-11 08:20:20 51°13.302 2°35.435 5.044272 3.14255 32.433045 8.691093
2004-03-11 08:20:26 51°13.29 2°35.401 5.049086 3.142971 32.436157 8.488836
2004-03-11 08:20:30 51°13.281 2°35.379 5.049086 3.142971 32.436157 8.488836
2004-03-11 08:20:36 51°13.269 2°35.344 5.049948 3.143602 32.441674 8.927059
2004-03-11 08:20:40 51°13.26 2°35.321 5.051113 3.143708 32.441177 8.387708
2004-03-11 08:20:46 51°13.247 2°35.288 5.053849 3.144129 32.445988 8.353999
2004-03-11 08:20:50 51°13.239 2°35.266 5.054254 3.144971 32.45306 8.28658
2004-03-11 08:20:54 51°13.229 2°35.245 5.054254 3.144971 32.45306 8.28658
2004-03-11 08:21:00 51°13.215 2°35.212 5.05542 3.145287 32.456668 8.623674
2004-03-11 08:21:05 51°13.202 2°35.185 5.058916 3.145498 32.456523 8.151742
2004-03-11 08:21:10 51°13.19 2°35.158 5.059118 3.146445 32.466497 8.792221
2004-03-11 08:21:16 51°13.175 2°35.127 5.062665 3.147393 32.47477 8.556255
2004-03-11 08:21:21 51°13.163 2°35.1 5.06611 3.147498 32.474271 8.691093
2004-03-11 08:21:26 51°13.15 2°35.076 5.06611 3.147498 32.474271 8.691093
2004-03-11 08:21:30 51°13.14 2°35.055 5.06925 3.148341 32.483892 8.724802
2004-03-11 08:21:36 51°13.123 2°35.025 5.072796 3.148762 32.484449 8.724802
2004-03-11 08:21:40 51°13.112 2°35.007 5.076139 3.149815 32.494773 8.185452
2004-03-11 08:21:46 51°13.095 2°34.98 5.081204 3.150236 32.497031 8.960768
2004-03-11 08:21:50 51°13.083 2°34.961 5.083787 3.150973 32.502895 8.252871
2004-03-11 08:21:56 51°13.065 2°34.935 5.085104 3.151815 32.50911 8.387708
2004-03-11 08:22:00 51°13.052 2°34.917 5.085104 3.151815 32.50911 8.387708
2004-03-11 08:22:06 51°13.034 2°34.891 5.086268 3.152342 32.51342 9.163024
2004-03-11 08:22:10 51°13.021 2°34.877 5.088952 3.153079 32.51758 8.185452
2004-03-11 08:22:16 51°13.003 2°34.852 5.088294 3.15371 32.521389 8.893349
2004-03-11 08:22:20 51°12.99 2°34.836 5.090168 3.154448 32.528952 8.118033
2004-03-11 08:22:26 51°12.971 2°34.812 5.088041 3.154869 32.530356 8.85964
2004-03-11 08:22:30 51°12.958 2°34.797 5.088041 3.154869 32.530356 8.85964
2004-03-11 08:22:35 51°12.942 2°34.779 5.088243 3.15529 32.533461 8.219161
2004-03-11 08:22:40 51°12.926 2°34.759 5.087636 3.156027 32.540172 8.994477
2004-03-11 08:22:44 51°12.913 2°34.744 5.087636 3.156027 32.539321 8.927059
2004-03-11 08:22:50 51°12.894 2°34.72 5.08956 3.156553 32.546182 8.994477
2004-03-11 08:22:56 51°12.875 2°34.697 5.088547 3.156343 32.543778 8.387708
2004-03-11 08:23:00 51°12.862 2°34.683 5.088547 3.156343 32.543778 8.387708
2004-03-11 08:23:06 51°12.843 2°34.659 5.088952 3.156448 32.546683 9.264153
2004-03-11 08:23:10 51°12.83 2°34.643 5.087332 3.156343 32.545481 8.82593
2004-03-11 08:23:16 51°12.811 2°34.62 5.087838 3.156343 32.54463 9.264153
2004-03-11 08:23:21 51°12.796 2°34.601 5.087079 3.156343 32.54463 8.927059
2004-03-11 08:23:26 51°12.78 2°34.582 5.085762 3.156343 32.543778 8.758512
2004-03-11 08:23:30 51°12.767 2°34.566 5.085762 3.156343 32.543778 8.758512
2004-03-11 08:23:36 51°12.748 2°34.545 5.085306 3.156448 32.545832 8.82593
2004-03-11 08:23:40 51°12.735 2°34.529 5.087281 3.156238 32.542576 8.960768
2004-03-11 08:23:46 51°12.717 2°34.505 5.088902 3.156343 32.54463 9.196734
2004-03-11 08:23:50 51°12.704 2°34.49 5.088902 3.156132 32.543077 8.994477
2004-03-11 08:23:56 51°12.686 2°34.465 5.088902 3.156132 32.543077 8.994477
2004-03-11 08:24:01 51°12.67 2°34.446 5.088598 3.156027 32.542727 9.196734
2004-03-11 08:24:06 51°12.655 2°34.426 5.089358 3.156027 32.542727 9.095606
2004-03-11 08:24:10 51°12.642 2°34.41 5.088851 3.156238 32.542576 9.567537
2004-03-11 08:24:16 51°12.623 2°34.386 5.087737 3.156343 32.542927 9.466409
2004-03-11 08:24:20 51°12.61 2°34.371 5.086268 3.156448 32.54498 9.297862
2004-03-11 08:24:25 51°12.595 2°34.353 5.086268 3.156448 32.54498 9.297862
2004-03-11 08:24:30 51°12.581 2°34.336 5.084091 3.156448 32.543277 9.668665
2004-03-11 08:24:36 51°12.564 2°34.318 5.083635 3.156238 32.541725 9.567537
2004-03-11 08:24:41 51°12.552 2°34.306 5.083888 3.156132 32.540523 9.230443
2004-03-11 08:24:46 51°12.54 2°34.295 5.080698 3.155816 32.537769 9.129315
2004-03-11 08:24:50 51°12.531 2°34.288 5.078621 3.155711 32.538269 10.342853
2004-03-11 08:24:56 51°12.518 2°34.28 5.07857 3.1555 32.538419 9.500118
2004-03-11 08:25:00 51°12.51 2°34.275 5.07857 3.1555 32.538419 9.500118
2004-03-11 08:25:05 51°12.501 2°34.271 5.077709 3.155395 32.538068 9.533828
2004-03-11 08:25:10 51°12.491 2°34.267 5.082116 3.15529 32.537718 9.601247
2004-03-11 08:25:16 51°12.481 2°34.265 5.079685 3.155185 32.538218 9.500118
2004-03-11 08:25:20 51°12.475 2°34.263 5.080495 3.155079 32.539571 9.567537
2004-03-11 08:25:26 51°12.466 2°34.261 5.083989 3.155185 32.540773 9.533828
2004-03-11 08:25:30 51°12.46 2°34.26 5.083989 3.155185 32.540773 9.533828
2004-03-11 08:25:36 51°12.452 2°34.258 5.082977 3.155079 32.538719 9.365281
2004-03-11 08:25:40 51°12.447 2°34.257 5.084901 3.155185 32.53907 9.500118
2004-03-11 08:25:46 51°12.439 2°34.255 5.083635 3.15529 32.540272 9.702375
2004-03-11 08:25:50 51°12.435 2°34.254 5.082521 3.155395 32.539771 9.466409
2004-03-11 08:25:56 51°12.428 2°34.253 5.083584 3.155501 32.540122 9.163024
2004-03-11 08:26:00 51°12.424 2°34.252 5.083584 3.155501 32.540122 9.163024
2004-03-11 08:26:04 51°12.42 2°34.251 5.081812 3.155711 32.540823 9.500118
2004-03-11 08:26:10 51°12.413 2°34.249 5.081407 3.155606 32.539621 9.264153
2004-03-11 08:26:16 51°12.408 2°34.248 5.076139 3.155606 32.539621 9.230443
2004-03-11 08:26:20 51°12.404 2°34.247 5.078469 3.1555 32.537568 9.061896
2004-03-11 08:26:25 51°12.399 2°34.245 5.075481 3.155816 32.542025 9.163024
2004-03-11 08:26:30 51°12.395 2°34.244 5.075481 3.155816 32.542025 9.163024
2004-03-11 08:26:36 51°12.39 2°34.242 5.075886 3.155395 32.538068 9.061896
2004-03-11 08:26:40 51°12.387 2°34.241 5.074316 3.15529 32.539421 9.163024
2004-03-11 08:26:46 51°12.382 2°34.239 5.07543 3.154869 32.535463 8.85964
2004-03-11 08:26:50 51°12.379 2°34.238 5.072644 3.154763 32.535964 8.960768
2004-03-11 08:26:56 51°12.374 2°34.236 5.071682 3.154553 32.535262 8.960768
2004-03-11 08:27:01 51°12.371 2°34.234 5.071682 3.154553 32.535262 8.960768
2004-03-11 08:27:06 51°12.367 2°34.232 5.073708 3.154237 32.531656 8.960768
2004-03-11 08:27:10 51°12.364 2°34.231 5.076139 3.154237 32.531656 9.365281
2004-03-11 08:27:16 51°12.36 2°34.228 5.075227 3.154132 32.531305 9.163024
2004-03-11 08:27:20 51°12.358 2°34.227 5.077709 3.153605 32.526145 9.230443
2004-03-11 08:27:26 51°12.354 2°34.224 5.071327 3.153816 32.529401 8.85964
2004-03-11 08:27:30 51°12.351 2°34.223 5.071327 3.153816 32.529401 8.85964
2004-03-11 08:27:36 51°12.348 2°34.22 5.073759 3.153816 32.528549 8.893349
2004-03-11 08:27:40 51°12.345 2°34.219 5.076139 3.153816 32.526847 8.691093
2004-03-11 08:27:46 51°12.342 2°34.216 5.073607 3.153816 32.527698 9.230443
2004-03-11 08:27:50 51°12.34 2°34.214 5.074822 3.153711 32.527347 8.927059
2004-03-11 08:27:56 51°12.336 2°34.212 5.073911 3.153711 32.527347 9.028187
2004-03-11 08:28:00 51°12.334 2°34.209 5.073911 3.153711 32.527347 9.028187
2004-03-11 08:28:06 51°12.331 2°34.207 5.072391 3.1535 32.524942 8.893349
2004-03-11 08:28:10 51°12.329 2°34.205 5.077102 3.153605 32.525293 8.994477
2004-03-11 08:28:16 51°12.326 2°34.202 5.076595 3.153711 32.526496 9.264153
2004-03-11 08:28:21 51°12.323 2°34.199 5.08014 3.1535 32.524942 9.297862
2004-03-11 08:28:25 51°12.321 2°34.197 5.08014 3.1535 32.524942 9.297862
2004-03-11 08:28:28 51°12.32 2°34.195 5.078773 3.153395 32.52374 9.129315
2004-03-11 08:28:34 51°12.317 2°34.192 5.082875 3.153289 32.521687 9.365281
2004-03-11 08:28:40 51°12.314 2°34.188 5.084547 3.153395 32.522038 9.668665
2004-03-11 08:28:45 51°12.312 2°34.185 5.087383 3.153605 32.52274 9.297862
2004-03-11 08:28:51 51°12.309 2°34.182 5.088547 3.153711 32.523942 9.061896
2004-03-11 08:28:56 51°12.307 2°34.179 5.089307 3.15371 32.520538 9.533828
2004-03-11 08:29:00 51°12.306 2°34.177 5.089307 3.15371 32.520538 9.533828
2004-03-11 08:29:06 51°12.303 2°34.173 5.090826 3.153816 32.520889 9.264153
2004-03-11 08:29:10 51°12.301 2°34.17 5.088193 3.153921 32.520389 9.567537
2004-03-11 08:29:16 51°12.299 2°34.167 5.087788 3.153921 32.517837 9.601247
2004-03-11 08:29:20 51°12.297 2°34.164 5.088902 3.153921 32.517837 9.601247
2004-03-11 08:29:26 51°12.294 2°34.16 5.089307 3.154026 32.517337 9.297862
2004-03-11 08:29:30 51°12.291 2°34.158 5.089307 3.154026 32.517337 9.297862
2004-03-11 08:29:36 51°12.288 2°34.154 5.090826 3.153921 32.516986 9.095606
2004-03-11 08:29:40 51°12.285 2°34.151 5.091839 3.154026 32.517337 9.196734
2004-03-11 08:29:45 51°12.282 2°34.147 5.092598 3.154026 32.518188 9.196734
2004-03-11 08:29:50 51°12.278 2°34.143 5.093155 3.153921 32.516135 9.500118
2004-03-11 08:29:56 51°12.274 2°34.139 5.090623 3.153816 32.514083 9.196734
2004-03-11 08:30:01 51°12.27 2°34.134 5.090623 3.153816 32.514083 9.196734
2004-03-11 08:30:06 51°12.267 2°34.13 5.090269 3.153921 32.514434 9.4327
2004-03-11 08:30:10 51°12.263 2°34.127 5.088243 3.153921 32.513584 9.634956
2004-03-11 08:30:16 51°12.259 2°34.121 5.085559 3.153921 32.513584 9.533828
2004-03-11 08:30:21 51°12.255 2°34.116 5.08485 3.153816 32.513232 9.837212
2004-03-11 08:30:25 51°12.252 2°34.113 5.086775 3.15371 32.512881 9.803503
2004-03-11 08:30:30 51°12.247 2°34.107 5.086775 3.15371 32.512881 9.803503
2004-03-11 08:30:36 51°12.242 2°34.101 5.085407 3.153605 32.51253 8.927059
2004-03-11 08:30:40 51°12.239 2°34.096 5.083787 3.153395 32.512678 9.533828
2004-03-11 08:30:46 51°12.233 2°34.09 5.08561 3.153289 32.513177 9.904631
2004-03-11 08:30:50 51°12.23 2°34.086 5.083331 3.153289 32.512327 9.500118
2004-03-11 08:30:56 51°12.224 2°34.079 5.077304 3.153184 32.511976 9.668665
2004-03-11 08:31:01 51°12.22 2°34.073 5.077304 3.153184 32.511976 9.668665
2004-03-11 08:31:06 51°12.216 2°34.068 5.080647 3.153184 32.512826 9.4327
2004-03-11 08:31:10 51°12.212 2°34.063 5.07543 3.153079 32.511624 9.163024
2004-03-11 08:31:16 51°12.207 2°34.056 5.07852 3.153079 32.512475 9.803503
2004-03-11 08:31:20 51°12.203 2°34.052 5.076038 3.152973 32.512124 9.870922
2004-03-11 08:31:26 51°12.198 2°34.045 5.072644 3.152763 32.511421 9.634956
2004-03-11 08:31:30 51°12.195 2°34.04 5.072644 3.152763 32.511421 9.634956
2004-03-11 08:31:36 51°12.189 2°34.033 5.073961 3.152658 32.51107 9.870922
2004-03-11 08:31:41 51°12.185 2°34.027 5.073961 3.152552 32.510719 10.410272
2004-03-11 08:31:46 51°12.181 2°34.021 5.071125 3.152447 32.511218 9.634956
2004-03-11 08:31:50 51°12.178 2°34.016 5.070314 3.152236 32.511366 9.803503
2004-03-11 08:31:56 51°12.173 2°34.01 5.070314 3.152236 32.511366 9.803503
2004-03-11 08:32:00 51°12.169 2°34.004 5.067781 3.152236 32.512217 9.634956
2004-03-11 08:32:05 51°12.165 2°33.999 5.067325 3.152131 32.509313 9.668665
2004-03-11 08:32:10 51°12.161 2°33.992 5.065603 3.152026 32.509813 9.331571
2004-03-11 08:32:16 51°12.156 2°33.984 5.068237 3.151921 32.510312 9.769794
2004-03-11 08:32:21 51°12.152 2°33.979 5.067224 3.151815 32.510812 9.736084
2004-03-11 08:32:26 51°12.148 2°33.972 5.065147 3.151605 32.508407 9.736084
2004-03-11 08:32:30 51°12.145 2°33.967 5.065147 3.151605 32.508407 9.736084
2004-03-11 08:32:34 51°12.142 2°33.962 5.064894 3.151605 32.510109 9.803503
2004-03-11 08:32:40 51°12.137 2°33.954 5.063425 3.151499 32.508907 9.500118
2004-03-11 08:32:46 51°12.133 2°33.945 5.065299 3.151289 32.507353 9.97205
2004-03-11 08:32:50 51°12.13 2°33.94 5.062614 3.151394 32.508556 9.769794
2004-03-11 08:32:56 51°12.126 2°33.931 5.06307 3.151184 32.507853 9.601247
2004-03-11 08:33:01 51°12.122 2°33.924 5.06307 3.151184 32.507853 9.601247
2004-03-11 08:33:06 51°12.119 2°33.917 5.062462 3.151184 32.507853 9.938341
2004-03-11 08:33:10 51°12.116 2°33.911 5.064185 3.151184 32.507853 9.702375
2004-03-11 08:33:16 51°12.112 2°33.902 5.06155 3.150973 32.506299 9.769794
2004-03-11 08:33:21 51°12.108 2°33.894 5.060182 3.151184 32.507853 9.870922
2004-03-11 08:33:26 51°12.105 2°33.887 5.06079 3.150868 32.505096 9.634956
2004-03-11 08:33:30 51°12.102 2°33.88 5.06079 3.150868 32.505096 9.634956
2004-03-11 08:33:36 51°12.099 2°33.871 5.064387 3.150868 32.505096 9.500118
2004-03-11 08:33:40 51°12.096 2°33.865 5.062715 3.150657 32.504393 9.736084
2004-03-11 08:33:44 51°12.094 2°33.858 5.058865 3.150657 32.505244 9.668665
2004-03-11 08:33:50 51°12.09 2°33.849 5.06079 3.150552 32.504042 9.769794
2004-03-11 08:33:56 51°12.087 2°33.839 5.061297 3.150552 32.503191 9.938341
2004-03-11 08:34:00 51°12.085 2°33.832 5.061297 3.150552 32.503191 9.938341
2004-03-11 08:34:06 51°12.081 2°33.823 5.062867 3.150552 32.503191 9.365281
2004-03-11 08:34:10 51°12.079 2°33.816 5.060942 3.150552 32.504893 9.736084
2004-03-11 08:34:16 51°12.076 2°33.806 5.060436 3.150447 32.50369 9.4327
2004-03-11 08:34:20 51°12.074 2°33.8 5.058054 3.150341 32.501637 9.601247
2004-03-11 08:34:24 51°12.072 2°33.793 5.063577 3.150552 32.50234 9.837212
2004-03-11 08:34:30 51°12.069 2°33.783 5.063577 3.150552 32.50234 9.837212
2004-03-11 08:34:36 51°12.066 2°33.774 5.060537 3.150552 32.504042 9.904631
2004-03-11 08:34:41 51°12.063 2°33.766 5.060942 3.150341 32.502488 9.803503
2004-03-11 08:34:45 51°12.061 2°33.759 5.059118 3.150341 32.502488 9.668665
2004-03-11 08:34:50 51°12.058 2°33.752 5.060385 3.150341 32.501637 9.4327
2004-03-11 08:34:56 51°12.055 2°33.742 5.059422 3.150341 32.501637 9.702375
2004-03-11 08:35:00 51°12.053 2°33.736 5.059422 3.150341 32.501637 9.702375
2004-03-11 08:35:06 51°12.049 2°33.727 5.061196 3.150657 32.505244 9.601247
2004-03-11 08:35:10 51°12.047 2°33.721 5.061955 3.150657 32.506095 10.208016
2004-03-11 08:35:16 51°12.044 2°33.712 5.061398 3.150552 32.504893 9.870922
2004-03-11 08:35:21 51°12.041 2°33.704 5.063171 3.150657 32.506947 9.702375
2004-03-11 08:35:26 51°12.038 2°33.697 5.063171 3.150657 32.506947 9.702375
2004-03-11 08:35:30 51°12.036 2°33.691 5.06155 3.150868 32.509352 9.938341
2004-03-11 08:35:36 51°12.033 2°33.682 5.063425 3.150868 32.508501 9.365281
2004-03-11 08:35:41 51°12.03 2°33.675 5.061955 3.151078 32.510055 9.601247
2004-03-11 08:35:46 51°12.027 2°33.667 5.064894 3.151184 32.510406 9.668665
2004-03-11 08:35:50 51°12.024 2°33.662 5.06611 3.151394 32.512811 9.297862
2004-03-11 08:35:56 51°12.021 2°33.653 5.065907 3.151394 32.512811 9.769794
2004-03-11 08:36:00 51°12.019 2°33.647 5.065907 3.151394 32.512811 9.769794
2004-03-11 08:36:06 51°12.015 2°33.638 5.067173 3.151605 32.514365 9.500118
2004-03-11 08:36:10 51°12.013 2°33.632 5.067984 3.151815 32.515919 9.904631
2004-03-11 08:36:16 51°12.01 2°33.623 5.067883 3.152026 32.518324 9.837212
2004-03-11 08:36:21 51°12.007 2°33.616 5.069048 3.146129 32.45014 9.567537
2004-03-11 08:36:26 51°12.004 2°33.608 5.071074 3.147077 32.460111 9.601247
2004-03-11 08:36:30 51°12.002 2°33.603 5.071074 3.147077 32.460111 9.601247
2004-03-11 08:36:36 51°11.998 2°33.594 5.071631 3.152447 32.519729 9.500118
2004-03-11 08:36:40 51°11.996 2°33.588 5.069554 3.152658 32.522134 9.466409
2004-03-11 08:36:45 51°11.993 2°33.581 5.072948 3.152763 32.522485 9.331571
2004-03-11 08:36:50 51°11.99 2°33.574 5.072442 3.153079 32.525241 8.994477
2004-03-11 08:36:56 51°11.987 2°33.565 5.074164 3.148972 32.4775 9.264153
2004-03-11 08:37:00 51°11.984 2°33.56 5.074164 3.148972 32.4775 9.264153
2004-03-11 08:37:06 51°11.981 2°33.551 5.073607 3.153605 32.52955 9.163024
2004-03-11 08:37:10 51°11.978 2°33.546 5.073961 3.153711 32.529901 8.994477
2004-03-11 08:37:16 51°11.975 2°33.537 5.075379 3.153816 32.531103 9.264153
2004-03-11 08:37:20 51°11.972 2°33.532 5.075835 3.154026 32.531805 9.533828
2004-03-11 08:37:24 51°11.97 2°33.526 5.077304 3.154237 32.535062 9.4327
2004-03-11 08:37:30 51°11.966 2°33.517 5.077304 3.154237 32.535062 9.4327
2004-03-11 08:37:36 51°11.962 2°33.509 5.078621 3.154448 32.536615 9.264153
2004-03-11 08:37:40 51°11.959 2°33.503 5.080799 3.154658 32.538168 9.163024
2004-03-11 08:37:45 51°11.956 2°33.496 5.079229 3.154764 32.53937 9.196734
2004-03-11 08:37:50 51°11.953 2°33.489 5.080596 3.154869 32.539721 9.331571
2004-03-11 08:37:56 51°11.949 2°33.481 5.081559 3.15529 32.542827 9.466409
2004-03-11 08:38:00 51°11.946 2°33.475 5.081559 3.15529 32.542827 9.466409
2004-03-11 08:38:06 51°11.942 2°33.467 5.084293 3.155501 32.54438 8.893349
2004-03-11 08:38:10 51°11.94 2°33.461 5.082774 3.155606 32.545582 9.095606